<?xml version='1.0' encoding='UTF-8'?><gpx version="1.1" creator="JPX - https://github.com/jenetics/jpx" xmlns="http://www.topografix.com/GPX/1/1"><trk><trkseg><trkpt lat="45.7741464" lon="13.6086983"><ele>57.0</ele><time>2026-04-06T07:03:26.085Z</time></trkpt><trkpt lat="45.7741975" lon="13.6087754"><ele>57.0</ele><time>2026-04-06T07:03:29.095Z</time></trkpt><trkpt lat="45.774242" lon="13.6088716"><ele>57.0</ele><time>2026-04-06T07:03:32.096Z</time></trkpt><trkpt lat="45.7742797" lon="13.6089749"><ele>57.0</ele><time>2026-04-06T07:03:35.096Z</time></trkpt><trkpt lat="45.7743142" lon="13.6090706"><ele>57.0</ele><time>2026-04-06T07:03:38.096Z</time></trkpt><trkpt lat="45.7743765" lon="13.6091302"><ele>57.0</ele><time>2026-04-06T07:03:42.096Z</time></trkpt><trkpt lat="45.7744425" lon="13.6091064"><ele>56.166666666666664</ele><time>2026-04-06T07:03:46.096Z</time></trkpt><trkpt lat="45.7745134" lon="13.6091103"><ele>55.33333333333333</ele><time>2026-04-06T07:04:08.096Z</time></trkpt><trkpt lat="45.7745652" lon="13.6091862"><ele>54.5</ele><time>2026-04-06T07:04:10.096Z</time></trkpt><trkpt lat="45.7745795" lon="13.6092886"><ele>53.666666666666664</ele><time>2026-04-06T07:04:12.096Z</time></trkpt><trkpt lat="45.7745764" lon="13.609402"><ele>52.83333333333333</ele><time>2026-04-06T07:04:15.096Z</time></trkpt><trkpt lat="45.7746084" lon="13.6095201"><ele>52.0</ele><time>2026-04-06T07:04:18.096Z</time></trkpt><trkpt lat="45.7746363" lon="13.6096072"><ele>51.99999999999999</ele><time>2026-04-06T07:04:20.095Z</time></trkpt><trkpt lat="45.7746711" lon="13.6096975"><ele>52.0</ele><time>2026-04-06T07:04:22.096Z</time></trkpt><trkpt lat="45.7747154" lon="13.6097799"><ele>52.0</ele><time>2026-04-06T07:04:24.096Z</time></trkpt><trkpt lat="45.7747641" lon="13.609859"><ele>52.0</ele><time>2026-04-06T07:04:26.095Z</time></trkpt><trkpt lat="45.7748186" lon="13.6099389"><ele>51.99999999999999</ele><time>2026-04-06T07:04:28.096Z</time></trkpt><trkpt lat="45.774871" lon="13.6100232"><ele>52.0</ele><time>2026-04-06T07:04:30.096Z</time></trkpt><trkpt lat="45.7749198" lon="13.6101141"><ele>51.99999999999999</ele><time>2026-04-06T07:04:32.096Z</time></trkpt><trkpt lat="45.7749756" lon="13.6102032"><ele>52.0</ele><time>2026-04-06T07:04:34.096Z</time></trkpt><trkpt lat="45.7750341" lon="13.6102899"><ele>52.0</ele><time>2026-04-06T07:04:36.096Z</time></trkpt><trkpt lat="45.7750943" lon="13.6103757"><ele>52.0</ele><time>2026-04-06T07:04:38.095Z</time></trkpt><trkpt lat="45.7751551" lon="13.6104586"><ele>51.99999999999999</ele><time>2026-04-06T07:04:40.096Z</time></trkpt><trkpt lat="45.7752182" lon="13.6105397"><ele>52.0</ele><time>2026-04-06T07:04:42.095Z</time></trkpt><trkpt lat="45.7752823" lon="13.6106178"><ele>52.49999999999999</ele><time>2026-04-06T07:04:44.096Z</time></trkpt><trkpt lat="45.7753439" lon="13.6106975"><ele>53.0</ele><time>2026-04-06T07:04:46.096Z</time></trkpt><trkpt lat="45.7754086" lon="13.6107799"><ele>53.5</ele><time>2026-04-06T07:04:48.096Z</time></trkpt><trkpt lat="45.7754668" lon="13.6108666"><ele>54.0</ele><time>2026-04-06T07:04:50.096Z</time></trkpt><trkpt lat="45.7755221" lon="13.6109567"><ele>54.49999999999999</ele><time>2026-04-06T07:04:52.096Z</time></trkpt><trkpt lat="45.775582" lon="13.6110392"><ele>55.0</ele><time>2026-04-06T07:04:54.096Z</time></trkpt><trkpt lat="45.7756413" lon="13.6111199"><ele>54.99999999999999</ele><time>2026-04-06T07:04:56.096Z</time></trkpt><trkpt lat="45.7757003" lon="13.6111998"><ele>55.0</ele><time>2026-04-06T07:04:58.095Z</time></trkpt><trkpt lat="45.7757589" lon="13.6112722"><ele>55.0</ele><time>2026-04-06T07:05:00.096Z</time></trkpt><trkpt lat="45.7758187" lon="13.6113468"><ele>55.0</ele><time>2026-04-06T07:05:02.096Z</time></trkpt><trkpt lat="45.7758794" lon="13.6114246"><ele>54.99999999999999</ele><time>2026-04-06T07:05:04.096Z</time></trkpt><trkpt lat="45.7759356" lon="13.611506"><ele>55.0</ele><time>2026-04-06T07:05:06.095Z</time></trkpt><trkpt lat="45.7759856" lon="13.6115947"><ele>56.28571428571428</ele><time>2026-04-06T07:05:08.095Z</time></trkpt><trkpt lat="45.7760334" lon="13.611681"><ele>57.57142857142857</ele><time>2026-04-06T07:05:10.096Z</time></trkpt><trkpt lat="45.7760759" lon="13.6117647"><ele>58.857142857142854</ele><time>2026-04-06T07:05:12.096Z</time></trkpt><trkpt lat="45.7761245" lon="13.6118781"><ele>60.14285714285714</ele><time>2026-04-06T07:05:15.095Z</time></trkpt><trkpt lat="45.7761586" lon="13.611956"><ele>61.42857142857142</ele><time>2026-04-06T07:05:17.096Z</time></trkpt><trkpt lat="45.7761971" lon="13.612032"><ele>62.71428571428571</ele><time>2026-04-06T07:05:19.096Z</time></trkpt><trkpt lat="45.7762438" lon="13.6121079"><ele>64.0</ele><time>2026-04-06T07:05:21.095Z</time></trkpt><trkpt lat="45.7763138" lon="13.6121759"><ele>63.99999999999999</ele><time>2026-04-06T07:05:23.095Z</time></trkpt><trkpt lat="45.7763606" lon="13.6122724"><ele>64.0</ele><time>2026-04-06T07:05:27.095Z</time></trkpt><trkpt lat="45.7763763" lon="13.6123667"><ele>64.0</ele><time>2026-04-06T07:05:31.095Z</time></trkpt><trkpt lat="45.7764114" lon="13.6124572"><ele>64.0</ele><time>2026-04-06T07:05:36.096Z</time></trkpt><trkpt lat="45.7764569" lon="13.6125471"><ele>63.99999999999999</ele><time>2026-04-06T07:05:41.095Z</time></trkpt><trkpt lat="45.7764946" lon="13.6126481"><ele>64.0</ele><time>2026-04-06T07:05:46.095Z</time></trkpt><trkpt lat="45.776539" lon="13.6127402"><ele>64.0</ele><time>2026-04-06T07:05:51.096Z</time></trkpt><trkpt lat="45.7765785" lon="13.6128195"><ele>63.99999999999999</ele><time>2026-04-06T07:05:55.096Z</time></trkpt><trkpt lat="45.7766291" lon="13.6128948"><ele>64.0</ele><time>2026-04-06T07:05:59.096Z</time></trkpt><trkpt lat="45.7766733" lon="13.612981"><ele>64.0</ele><time>2026-04-06T07:06:03.096Z</time></trkpt><trkpt lat="45.7767125" lon="13.6130731"><ele>63.99999999999999</ele><time>2026-04-06T07:06:07.096Z</time></trkpt><trkpt lat="45.7767542" lon="13.613162"><ele>64.0</ele><time>2026-04-06T07:06:11.096Z</time></trkpt><trkpt lat="45.7768022" lon="13.6132538"><ele>64.0</ele><time>2026-04-06T07:06:15.096Z</time></trkpt><trkpt lat="45.7768497" lon="13.6133502"><ele>65.28571428571428</ele><time>2026-04-06T07:06:19.096Z</time></trkpt><trkpt lat="45.7768874" lon="13.613426"><ele>66.57142857142857</ele><time>2026-04-06T07:06:22.095Z</time></trkpt><trkpt lat="45.7769205" lon="13.6135031"><ele>67.85714285714286</ele><time>2026-04-06T07:06:25.096Z</time></trkpt><trkpt lat="45.7769533" lon="13.6135837"><ele>69.14285714285714</ele><time>2026-04-06T07:06:28.096Z</time></trkpt><trkpt lat="45.7769933" lon="13.6136574"><ele>70.42857142857143</ele><time>2026-04-06T07:06:31.096Z</time></trkpt><trkpt lat="45.7770334" lon="13.613732"><ele>71.71428571428571</ele><time>2026-04-06T07:06:34.096Z</time></trkpt><trkpt lat="45.7770706" lon="13.6138087"><ele>73.0</ele><time>2026-04-06T07:06:37.096Z</time></trkpt><trkpt lat="45.7771189" lon="13.613896"><ele>73.0</ele><time>2026-04-06T07:06:41.096Z</time></trkpt><trkpt lat="45.7771629" lon="13.6139876"><ele>73.0</ele><time>2026-04-06T07:06:45.095Z</time></trkpt><trkpt lat="45.7772181" lon="13.6140617"><ele>73.0</ele><time>2026-04-06T07:06:49.096Z</time></trkpt><trkpt lat="45.7772609" lon="13.6141496"><ele>73.0</ele><time>2026-04-06T07:06:53.096Z</time></trkpt><trkpt lat="45.7772972" lon="13.6142469"><ele>73.0</ele><time>2026-04-06T07:06:57.096Z</time></trkpt><trkpt lat="45.7773435" lon="13.6143323"><ele>73.0</ele><time>2026-04-06T07:07:01.096Z</time></trkpt><trkpt lat="45.7773862" lon="13.614415"><ele>73.14285714285714</ele><time>2026-04-06T07:07:05.096Z</time></trkpt><trkpt lat="45.7774271" lon="13.6145077"><ele>73.28571428571429</ele><time>2026-04-06T07:07:09.096Z</time></trkpt><trkpt lat="45.777465" lon="13.6145983"><ele>73.42857142857143</ele><time>2026-04-06T07:07:13.096Z</time></trkpt><trkpt lat="45.7774999" lon="13.6146861"><ele>73.57142857142857</ele><time>2026-04-06T07:07:17.096Z</time></trkpt><trkpt lat="45.7775397" lon="13.6147707"><ele>73.71428571428571</ele><time>2026-04-06T07:07:21.095Z</time></trkpt><trkpt lat="45.7775878" lon="13.6148295"><ele>73.85714285714286</ele><time>2026-04-06T07:07:25.095Z</time></trkpt><trkpt lat="45.7776314" lon="13.6148994"><ele>74.0</ele><time>2026-04-06T07:07:29.096Z</time></trkpt><trkpt lat="45.7776547" lon="13.6149891"><ele>76.14285714285714</ele><time>2026-04-06T07:07:33.096Z</time></trkpt><trkpt lat="45.7776857" lon="13.615076"><ele>78.28571428571428</ele><time>2026-04-06T07:07:38.095Z</time></trkpt><trkpt lat="45.7777131" lon="13.615173"><ele>80.42857142857142</ele><time>2026-04-06T07:07:43.096Z</time></trkpt><trkpt lat="45.7777388" lon="13.615271"><ele>82.57142857142857</ele><time>2026-04-06T07:07:48.096Z</time></trkpt><trkpt lat="45.7777625" lon="13.6153779"><ele>84.71428571428571</ele><time>2026-04-06T07:07:53.096Z</time></trkpt><trkpt lat="45.7777889" lon="13.61547"><ele>86.85714285714285</ele><time>2026-04-06T07:07:57.096Z</time></trkpt><trkpt lat="45.7778069" lon="13.615564"><ele>89.0</ele><time>2026-04-06T07:08:01.096Z</time></trkpt><trkpt lat="45.777844" lon="13.6156436"><ele>89.14285714285714</ele><time>2026-04-06T07:08:05.095Z</time></trkpt><trkpt lat="45.7778738" lon="13.6157328"><ele>89.28571428571428</ele><time>2026-04-06T07:08:09.096Z</time></trkpt><trkpt lat="45.7779025" lon="13.6158206"><ele>89.42857142857142</ele><time>2026-04-06T07:08:13.096Z</time></trkpt><trkpt lat="45.7779321" lon="13.6159079"><ele>89.57142857142857</ele><time>2026-04-06T07:08:17.095Z</time></trkpt><trkpt lat="45.777963" lon="13.6159954"><ele>89.71428571428572</ele><time>2026-04-06T07:08:21.096Z</time></trkpt><trkpt lat="45.7779846" lon="13.6160903"><ele>89.85714285714285</ele><time>2026-04-06T07:08:25.096Z</time></trkpt><trkpt lat="45.7780172" lon="13.6161828"><ele>90.0</ele><time>2026-04-06T07:09:17.096Z</time></trkpt><trkpt lat="45.7780528" lon="13.616283"><ele>89.6</ele><time>2026-04-06T07:09:21.096Z</time></trkpt><trkpt lat="45.7780653" lon="13.616379"><ele>89.2</ele><time>2026-04-06T07:09:23.096Z</time></trkpt><trkpt lat="45.7780648" lon="13.6165031"><ele>88.80000000000001</ele><time>2026-04-06T07:09:25.096Z</time></trkpt><trkpt lat="45.7780664" lon="13.6166382"><ele>88.4</ele><time>2026-04-06T07:09:27.096Z</time></trkpt><trkpt lat="45.7780671" lon="13.6167927"><ele>88.0</ele><time>2026-04-06T07:09:29.096Z</time></trkpt><trkpt lat="45.778067" lon="13.6169422"><ele>88.14285714285714</ele><time>2026-04-06T07:09:31.096Z</time></trkpt><trkpt lat="45.7780657" lon="13.6170781"><ele>88.28571428571428</ele><time>2026-04-06T07:09:33.096Z</time></trkpt><trkpt lat="45.7780646" lon="13.6171818"><ele>88.42857142857142</ele><time>2026-04-06T07:09:35.095Z</time></trkpt><trkpt lat="45.778058" lon="13.6172789"><ele>88.57142857142857</ele><time>2026-04-06T07:09:37.096Z</time></trkpt><trkpt lat="45.7780513" lon="13.6173777"><ele>88.71428571428571</ele><time>2026-04-06T07:09:39.095Z</time></trkpt><trkpt lat="45.7780434" lon="13.6174832"><ele>88.85714285714285</ele><time>2026-04-06T07:09:41.096Z</time></trkpt><trkpt lat="45.7780321" lon="13.6175838"><ele>89.0</ele><time>2026-04-06T07:09:43.096Z</time></trkpt><trkpt lat="45.7780249" lon="13.6176896"><ele>88.99999999999999</ele><time>2026-04-06T07:09:45.095Z</time></trkpt><trkpt lat="45.77802" lon="13.6177914"><ele>89.0</ele><time>2026-04-06T07:09:47.096Z</time></trkpt><trkpt lat="45.7780173" lon="13.6178918"><ele>89.0</ele><time>2026-04-06T07:09:49.096Z</time></trkpt><trkpt lat="45.778013" lon="13.6179846"><ele>89.0</ele><time>2026-04-06T07:09:51.096Z</time></trkpt><trkpt lat="45.7780069" lon="13.618109"><ele>89.0</ele><time>2026-04-06T07:09:54.096Z</time></trkpt><trkpt lat="45.7779991" lon="13.6182197"><ele>88.99999999999999</ele><time>2026-04-06T07:09:57.096Z</time></trkpt><trkpt lat="45.7779919" lon="13.61832"><ele>89.0</ele><time>2026-04-06T07:10:00.096Z</time></trkpt><trkpt lat="45.7779911" lon="13.618432"><ele>89.14285714285714</ele><time>2026-04-06T07:10:04.096Z</time></trkpt><trkpt lat="45.7779904" lon="13.618538"><ele>89.28571428571428</ele><time>2026-04-06T07:10:08.096Z</time></trkpt><trkpt lat="45.7779921" lon="13.6186438"><ele>89.42857142857142</ele><time>2026-04-06T07:10:12.095Z</time></trkpt><trkpt lat="45.7779825" lon="13.6187522"><ele>89.57142857142857</ele><time>2026-04-06T07:10:16.096Z</time></trkpt><trkpt lat="45.7779797" lon="13.6188541"><ele>89.71428571428572</ele><time>2026-04-06T07:10:20.096Z</time></trkpt><trkpt lat="45.7779759" lon="13.6189618"><ele>89.85714285714285</ele><time>2026-04-06T07:10:25.095Z</time></trkpt><trkpt lat="45.7779917" lon="13.6190675"><ele>90.0</ele><time>2026-04-06T07:10:30.096Z</time></trkpt><trkpt lat="45.7780408" lon="13.6191482"><ele>90.28571428571428</ele><time>2026-04-06T07:10:35.096Z</time></trkpt><trkpt lat="45.778113" lon="13.6191599"><ele>90.57142857142858</ele><time>2026-04-06T07:11:11.096Z</time></trkpt><trkpt lat="45.7781807" lon="13.6191684"><ele>90.85714285714286</ele><time>2026-04-06T07:11:17.096Z</time></trkpt><trkpt lat="45.7782461" lon="13.6192124"><ele>91.14285714285714</ele><time>2026-04-06T07:11:22.096Z</time></trkpt><trkpt lat="45.778281" lon="13.6193138"><ele>91.42857142857142</ele><time>2026-04-06T07:11:27.096Z</time></trkpt><trkpt lat="45.7782804" lon="13.6194154"><ele>91.71428571428572</ele><time>2026-04-06T07:11:31.095Z</time></trkpt><trkpt lat="45.7783014" lon="13.6195227"><ele>92.0</ele><time>2026-04-06T07:11:35.096Z</time></trkpt><trkpt lat="45.7783355" lon="13.6196227"><ele>92.5</ele><time>2026-04-06T07:11:39.096Z</time></trkpt><trkpt lat="45.7783663" lon="13.6197145"><ele>93.0</ele><time>2026-04-06T07:11:43.095Z</time></trkpt><trkpt lat="45.7783857" lon="13.6198185"><ele>93.5</ele><time>2026-04-06T07:11:47.095Z</time></trkpt><trkpt lat="45.7784044" lon="13.6199261"><ele>94.0</ele><time>2026-04-06T07:11:51.096Z</time></trkpt><trkpt lat="45.7784172" lon="13.6200268"><ele>94.5</ele><time>2026-04-06T07:11:55.096Z</time></trkpt><trkpt lat="45.7784219" lon="13.6201341"><ele>95.0</ele><time>2026-04-06T07:11:59.096Z</time></trkpt><trkpt lat="45.7784331" lon="13.6202492"><ele>95.0</ele><time>2026-04-06T07:12:03.096Z</time></trkpt><trkpt lat="45.778435" lon="13.6203537"><ele>95.0</ele><time>2026-04-06T07:12:07.044Z</time></trkpt><trkpt lat="45.7784525" lon="13.6204596"><ele>95.0</ele><time>2026-04-06T07:12:11.095Z</time></trkpt><trkpt lat="45.7784547" lon="13.62055"><ele>95.0</ele><time>2026-04-06T07:12:14.096Z</time></trkpt><trkpt lat="45.7784536" lon="13.6206675"><ele>95.0</ele><time>2026-04-06T07:12:18.096Z</time></trkpt><trkpt lat="45.7784488" lon="13.6207601"><ele>95.0</ele><time>2026-04-06T07:12:21.096Z</time></trkpt><trkpt lat="45.7784456" lon="13.6208566"><ele>95.0</ele><time>2026-04-06T07:12:23.997Z</time></trkpt><trkpt lat="45.7784607" lon="13.6209537"><ele>95.0</ele><time>2026-04-06T07:12:27.096Z</time></trkpt><trkpt lat="45.7784824" lon="13.6210417"><ele>95.0</ele><time>2026-04-06T07:12:30.096Z</time></trkpt><trkpt lat="45.7785076" lon="13.6211323"><ele>95.0</ele><time>2026-04-06T07:12:33.066Z</time></trkpt><trkpt lat="45.7785376" lon="13.6212402"><ele>95.0</ele><time>2026-04-06T07:12:37.095Z</time></trkpt><trkpt lat="45.7785848" lon="13.62132"><ele>95.0</ele><time>2026-04-06T07:12:41.096Z</time></trkpt><trkpt lat="45.7785995" lon="13.6214176"><ele>95.0</ele><time>2026-04-06T07:12:46.096Z</time></trkpt><trkpt lat="45.7785615" lon="13.6215171"><ele>95.0</ele><time>2026-04-06T07:12:50.096Z</time></trkpt><trkpt lat="45.7785343" lon="13.6216213"><ele>97.71428571428572</ele><time>2026-04-06T07:12:53.096Z</time></trkpt><trkpt lat="45.7785317" lon="13.6217163"><ele>100.42857142857143</ele><time>2026-04-06T07:12:56.096Z</time></trkpt><trkpt lat="45.7785236" lon="13.6218324"><ele>103.14285714285714</ele><time>2026-04-06T07:13:00.096Z</time></trkpt><trkpt lat="45.7785348" lon="13.6219277"><ele>105.85714285714286</ele><time>2026-04-06T07:13:03.096Z</time></trkpt><trkpt lat="45.7785456" lon="13.6220191"><ele>108.57142857142856</ele><time>2026-04-06T07:13:06.096Z</time></trkpt><trkpt lat="45.7785597" lon="13.6221095"><ele>111.28571428571428</ele><time>2026-04-06T07:13:09.096Z</time></trkpt><trkpt lat="45.7785872" lon="13.622222"><ele>114.0</ele><time>2026-04-06T07:13:13.096Z</time></trkpt><trkpt lat="45.7785997" lon="13.6223275"><ele>114.0</ele><time>2026-04-06T07:13:17.096Z</time></trkpt><trkpt lat="45.7785984" lon="13.6224387"><ele>113.99999999999999</ele><time>2026-04-06T07:13:22.095Z</time></trkpt><trkpt lat="45.778597" lon="13.6225303"><ele>114.0</ele><time>2026-04-06T07:13:26.096Z</time></trkpt><trkpt lat="45.7785985" lon="13.6226219"><ele>114.0</ele><time>2026-04-06T07:13:30.096Z</time></trkpt><trkpt lat="45.7786072" lon="13.6227314"><ele>113.99999999999999</ele><time>2026-04-06T07:13:34.096Z</time></trkpt><trkpt lat="45.7786045" lon="13.6228344"><ele>114.0</ele><time>2026-04-06T07:13:37.096Z</time></trkpt><trkpt lat="45.7786001" lon="13.6229314"><ele>114.0</ele><time>2026-04-06T07:13:39.096Z</time></trkpt><trkpt lat="45.7786062" lon="13.6230276"><ele>114.0</ele><time>2026-04-06T07:13:41.095Z</time></trkpt><trkpt lat="45.7786226" lon="13.6231149"><ele>113.99999999999999</ele><time>2026-04-06T07:13:43.096Z</time></trkpt><trkpt lat="45.7786431" lon="13.6232183"><ele>114.0</ele><time>2026-04-06T07:13:46.096Z</time></trkpt><trkpt lat="45.7786488" lon="13.6233161"><ele>114.0</ele><time>2026-04-06T07:13:49.096Z</time></trkpt><trkpt lat="45.7786535" lon="13.6234534"><ele>113.99999999999999</ele><time>2026-04-06T07:13:52.096Z</time></trkpt><trkpt lat="45.7786615" lon="13.6235589"><ele>114.0</ele><time>2026-04-06T07:13:54.095Z</time></trkpt><trkpt lat="45.7786838" lon="13.623657"><ele>114.0</ele><time>2026-04-06T07:13:56.096Z</time></trkpt><trkpt lat="45.778719" lon="13.6237746"><ele>114.14285714285714</ele><time>2026-04-06T07:13:59.096Z</time></trkpt><trkpt lat="45.7787359" lon="13.623901"><ele>114.28571428571428</ele><time>2026-04-06T07:14:02.096Z</time></trkpt><trkpt lat="45.7787569" lon="13.6240153"><ele>114.42857142857142</ele><time>2026-04-06T07:14:05.096Z</time></trkpt><trkpt lat="45.7787682" lon="13.6241054"><ele>114.57142857142856</ele><time>2026-04-06T07:14:08.095Z</time></trkpt><trkpt lat="45.7787733" lon="13.6242009"><ele>114.71428571428571</ele><time>2026-04-06T07:14:12.096Z</time></trkpt><trkpt lat="45.7787433" lon="13.6242813"><ele>114.85714285714283</ele><time>2026-04-06T07:14:15.096Z</time></trkpt><trkpt lat="45.7786888" lon="13.6243512"><ele>114.99999999999999</ele><time>2026-04-06T07:14:19.096Z</time></trkpt><trkpt lat="45.7786318" lon="13.6244029"><ele>115.00000000000001</ele><time>2026-04-06T07:14:22.095Z</time></trkpt><trkpt lat="45.7785687" lon="13.6244562"><ele>115.0</ele><time>2026-04-06T07:14:24.096Z</time></trkpt><trkpt lat="45.7784945" lon="13.6245151"><ele>115.0</ele><time>2026-04-06T07:14:27.095Z</time></trkpt><trkpt lat="45.778456" lon="13.624602"><ele>115.0</ele><time>2026-04-06T07:14:30.096Z</time></trkpt><trkpt lat="45.7784389" lon="13.6247028"><ele>115.00000000000001</ele><time>2026-04-06T07:14:33.096Z</time></trkpt><trkpt lat="45.7784087" lon="13.6248199"><ele>115.0</ele><time>2026-04-06T07:14:36.096Z</time></trkpt><trkpt lat="45.7783836" lon="13.624905"><ele>113.66666666666667</ele><time>2026-04-06T07:14:38.095Z</time></trkpt><trkpt lat="45.7783518" lon="13.6250286"><ele>112.33333333333334</ele><time>2026-04-06T07:14:41.096Z</time></trkpt><trkpt lat="45.7783322" lon="13.6251475"><ele>111.0</ele><time>2026-04-06T07:14:44.096Z</time></trkpt><trkpt lat="45.7783151" lon="13.625253"><ele>109.66666666666666</ele><time>2026-04-06T07:14:47.095Z</time></trkpt><trkpt lat="45.7782903" lon="13.6253466"><ele>108.33333333333333</ele><time>2026-04-06T07:14:51.096Z</time></trkpt><trkpt lat="45.7782676" lon="13.6254361"><ele>107.0</ele><time>2026-04-06T07:14:55.096Z</time></trkpt><trkpt lat="45.7782491" lon="13.6255274"><ele>107.00000000000001</ele><time>2026-04-06T07:14:59.095Z</time></trkpt><trkpt lat="45.7782146" lon="13.6256277"><ele>107.0</ele><time>2026-04-06T07:15:03.096Z</time></trkpt><trkpt lat="45.7781876" lon="13.6257125"><ele>107.0</ele><time>2026-04-06T07:15:06.096Z</time></trkpt><trkpt lat="45.7781622" lon="13.625805"><ele>107.0</ele><time>2026-04-06T07:15:09.095Z</time></trkpt><trkpt lat="45.7781373" lon="13.6258972"><ele>107.0</ele><time>2026-04-06T07:15:12.095Z</time></trkpt><trkpt lat="45.7780874" lon="13.6259739"><ele>107.00000000000001</ele><time>2026-04-06T07:15:15.096Z</time></trkpt><trkpt lat="45.7780179" lon="13.6260561"><ele>107.0</ele><time>2026-04-06T07:15:18.096Z</time></trkpt><trkpt lat="45.7779771" lon="13.6261552"><ele>107.71428571428572</ele><time>2026-04-06T07:15:21.095Z</time></trkpt><trkpt lat="45.7779684" lon="13.6262706"><ele>108.42857142857143</ele><time>2026-04-06T07:15:24.096Z</time></trkpt><trkpt lat="45.7779463" lon="13.6263859"><ele>109.14285714285714</ele><time>2026-04-06T07:15:28.096Z</time></trkpt><trkpt lat="45.7779344" lon="13.6264883"><ele>109.85714285714286</ele><time>2026-04-06T07:15:32.096Z</time></trkpt><trkpt lat="45.7779265" lon="13.6265844"><ele>110.57142857142857</ele><time>2026-04-06T07:15:44.096Z</time></trkpt><trkpt lat="45.7779171" lon="13.6266769"><ele>111.28571428571429</ele><time>2026-04-06T07:15:56.096Z</time></trkpt><trkpt lat="45.7779039" lon="13.6267711"><ele>112.0</ele><time>2026-04-06T07:16:06.096Z</time></trkpt><trkpt lat="45.7779106" lon="13.6268647"><ele>112.0</ele><time>2026-04-06T07:16:14.095Z</time></trkpt><trkpt lat="45.7778942" lon="13.626958"><ele>112.0</ele><time>2026-04-06T07:16:22.096Z</time></trkpt><trkpt lat="45.7779077" lon="13.6270494"><ele>112.0</ele><time>2026-04-06T07:16:46.096Z</time></trkpt><trkpt lat="45.7779626" lon="13.6271143"><ele>112.0</ele><time>2026-04-06T07:17:01.096Z</time></trkpt><trkpt lat="45.7779996" lon="13.627217"><ele>112.0</ele><time>2026-04-06T07:17:05.096Z</time></trkpt><trkpt lat="45.7780393" lon="13.6273058"><ele>112.0</ele><time>2026-04-06T07:17:09.096Z</time></trkpt><trkpt lat="45.7781124" lon="13.62734"><ele>112.0</ele><time>2026-04-06T07:17:13.096Z</time></trkpt><trkpt lat="45.778185" lon="13.6273758"><ele>112.66666666666667</ele><time>2026-04-06T07:17:18.096Z</time></trkpt><trkpt lat="45.778257" lon="13.6274181"><ele>113.33333333333334</ele><time>2026-04-06T07:17:21.096Z</time></trkpt><trkpt lat="45.7783246" lon="13.6274551"><ele>114.0</ele><time>2026-04-06T07:17:23.096Z</time></trkpt><trkpt lat="45.7783976" lon="13.6274956"><ele>114.66666666666666</ele><time>2026-04-06T07:17:25.096Z</time></trkpt><trkpt lat="45.7784695" lon="13.6275355"><ele>115.33333333333333</ele><time>2026-04-06T07:17:27.096Z</time></trkpt><trkpt lat="45.7785409" lon="13.6275722"><ele>116.0</ele><time>2026-04-06T07:17:29.095Z</time></trkpt><trkpt lat="45.778609" lon="13.6276123"><ele>116.57142857142858</ele><time>2026-04-06T07:17:32.095Z</time></trkpt><trkpt lat="45.7786882" lon="13.6276408"><ele>117.14285714285714</ele><time>2026-04-06T07:17:36.096Z</time></trkpt><trkpt lat="45.7787509" lon="13.6276634"><ele>117.71428571428572</ele><time>2026-04-06T07:17:40.096Z</time></trkpt><trkpt lat="45.7788182" lon="13.6276804"><ele>118.28571428571429</ele><time>2026-04-06T07:17:57.096Z</time></trkpt><trkpt lat="45.7788823" lon="13.6277235"><ele>118.85714285714286</ele><time>2026-04-06T07:18:06.095Z</time></trkpt><trkpt lat="45.778918" lon="13.6278064"><ele>119.42857142857143</ele><time>2026-04-06T07:18:15.096Z</time></trkpt><trkpt lat="45.7789684" lon="13.6278809"><ele>120.0</ele><time>2026-04-06T07:18:23.096Z</time></trkpt><trkpt lat="45.7790343" lon="13.6278941"><ele>120.33333333333333</ele><time>2026-04-06T07:18:29.096Z</time></trkpt><trkpt lat="45.779049" lon="13.6279945"><ele>120.66666666666666</ele><time>2026-04-06T07:18:58.096Z</time></trkpt><trkpt lat="45.778998" lon="13.6280531"><ele>121.0</ele><time>2026-04-06T07:19:02.096Z</time></trkpt><trkpt lat="45.77894" lon="13.6281266"><ele>121.33333333333333</ele><time>2026-04-06T07:19:06.096Z</time></trkpt><trkpt lat="45.7788805" lon="13.6282156"><ele>121.66666666666666</ele><time>2026-04-06T07:19:10.096Z</time></trkpt><trkpt lat="45.7788361" lon="13.628288"><ele>122.0</ele><time>2026-04-06T07:19:13.096Z</time></trkpt><trkpt lat="45.7788068" lon="13.6284028"><ele>121.99999999999999</ele><time>2026-04-06T07:19:16.096Z</time></trkpt><trkpt lat="45.7788026" lon="13.6285227"><ele>122.0</ele><time>2026-04-06T07:19:19.096Z</time></trkpt><trkpt lat="45.7788034" lon="13.6286364"><ele>122.0</ele><time>2026-04-06T07:19:22.096Z</time></trkpt><trkpt lat="45.7788205" lon="13.6287511"><ele>122.0</ele><time>2026-04-06T07:19:25.096Z</time></trkpt><trkpt lat="45.7788316" lon="13.6288499"><ele>121.99999999999999</ele><time>2026-04-06T07:19:28.096Z</time></trkpt><trkpt lat="45.7788412" lon="13.6289573"><ele>122.0</ele><time>2026-04-06T07:19:31.096Z</time></trkpt><trkpt lat="45.7788386" lon="13.6290642"><ele>122.33333333333333</ele><time>2026-04-06T07:19:34.095Z</time></trkpt><trkpt lat="45.7788184" lon="13.6291623"><ele>122.66666666666666</ele><time>2026-04-06T07:19:37.095Z</time></trkpt><trkpt lat="45.7787959" lon="13.6292766"><ele>123.0</ele><time>2026-04-06T07:19:40.096Z</time></trkpt><trkpt lat="45.7787613" lon="13.6293994"><ele>123.33333333333334</ele><time>2026-04-06T07:19:43.096Z</time></trkpt><trkpt lat="45.7787437" lon="13.6294894"><ele>123.66666666666667</ele><time>2026-04-06T07:19:45.095Z</time></trkpt><trkpt lat="45.778723" lon="13.62962"><ele>124.0</ele><time>2026-04-06T07:19:48.096Z</time></trkpt><trkpt lat="45.7787006" lon="13.6297067"><ele>124.33333333333334</ele><time>2026-04-06T07:19:50.096Z</time></trkpt><trkpt lat="45.7786677" lon="13.6298242"><ele>124.66666666666667</ele><time>2026-04-06T07:19:53.096Z</time></trkpt><trkpt lat="45.778632" lon="13.6299464"><ele>125.0</ele><time>2026-04-06T07:19:56.096Z</time></trkpt><trkpt lat="45.7786105" lon="13.6300352"><ele>125.33333333333334</ele><time>2026-04-06T07:19:58.096Z</time></trkpt><trkpt lat="45.7785788" lon="13.6301639"><ele>125.66666666666667</ele><time>2026-04-06T07:20:01.096Z</time></trkpt><trkpt lat="45.7785613" lon="13.6302583"><ele>126.0</ele><time>2026-04-06T07:20:03.096Z</time></trkpt><trkpt lat="45.7785525" lon="13.6303512"><ele>126.0</ele><time>2026-04-06T07:20:05.096Z</time></trkpt><trkpt lat="45.7785551" lon="13.630447"><ele>126.0</ele><time>2026-04-06T07:20:07.096Z</time></trkpt><trkpt lat="45.7785473" lon="13.6305412"><ele>126.0</ele><time>2026-04-06T07:20:09.096Z</time></trkpt><trkpt lat="45.7785325" lon="13.6306607"><ele>126.0</ele><time>2026-04-06T07:20:11.096Z</time></trkpt><trkpt lat="45.7785253" lon="13.6308014"><ele>126.0</ele><time>2026-04-06T07:20:13.096Z</time></trkpt><trkpt lat="45.7784953" lon="13.6309348"><ele>126.0</ele><time>2026-04-06T07:20:15.096Z</time></trkpt><trkpt lat="45.7784487" lon="13.6310689"><ele>124.0</ele><time>2026-04-06T07:20:17.096Z</time></trkpt><trkpt lat="45.7784038" lon="13.6311971"><ele>122.0</ele><time>2026-04-06T07:20:19.096Z</time></trkpt><trkpt lat="45.7783523" lon="13.6313086"><ele>120.0</ele><time>2026-04-06T07:20:21.096Z</time></trkpt><trkpt lat="45.7783109" lon="13.6314363"><ele>118.0</ele><time>2026-04-06T07:20:23.096Z</time></trkpt><trkpt lat="45.7782788" lon="13.6315631"><ele>116.0</ele><time>2026-04-06T07:20:25.096Z</time></trkpt><trkpt lat="45.7782408" lon="13.6316571"><ele>116.00000000000001</ele><time>2026-04-06T07:20:27.096Z</time></trkpt><trkpt lat="45.7782048" lon="13.6317398"><ele>116.0</ele><time>2026-04-06T07:20:29.096Z</time></trkpt><trkpt lat="45.7781652" lon="13.6318103"><ele>116.00000000000001</ele><time>2026-04-06T07:20:31.096Z</time></trkpt><trkpt lat="45.778108" lon="13.6318777"><ele>116.00000000000001</ele><time>2026-04-06T07:20:33.096Z</time></trkpt><trkpt lat="45.7780245" lon="13.6319341"><ele>116.0</ele><time>2026-04-06T07:20:36.096Z</time></trkpt><trkpt lat="45.7779623" lon="13.6319842"><ele>116.00000000000001</ele><time>2026-04-06T07:20:39.096Z</time></trkpt><trkpt lat="45.7779095" lon="13.6320422"><ele>116.00000000000001</ele><time>2026-04-06T07:20:42.095Z</time></trkpt><trkpt lat="45.777841" lon="13.6321196"><ele>116.99999999999999</ele><time>2026-04-06T07:20:45.096Z</time></trkpt><trkpt lat="45.7777858" lon="13.6321842"><ele>118.0</ele><time>2026-04-06T07:20:47.096Z</time></trkpt><trkpt lat="45.7777266" lon="13.6322475"><ele>119.0</ele><time>2026-04-06T07:20:49.096Z</time></trkpt><trkpt lat="45.7776707" lon="13.6323096"><ele>120.0</ele><time>2026-04-06T07:20:51.096Z</time></trkpt><trkpt lat="45.7776198" lon="13.6323717"><ele>120.99999999999999</ele><time>2026-04-06T07:20:53.096Z</time></trkpt><trkpt lat="45.7775569" lon="13.6324625"><ele>122.0</ele><time>2026-04-06T07:20:56.096Z</time></trkpt><trkpt lat="45.7775135" lon="13.6325564"><ele>120.14285714285712</ele><time>2026-04-06T07:20:59.095Z</time></trkpt><trkpt lat="45.777481" lon="13.6326373"><ele>118.28571428571428</ele><time>2026-04-06T07:21:01.096Z</time></trkpt><trkpt lat="45.7774481" lon="13.6327236"><ele>116.42857142857142</ele><time>2026-04-06T07:21:03.096Z</time></trkpt><trkpt lat="45.7774142" lon="13.63282"><ele>114.57142857142856</ele><time>2026-04-06T07:21:05.096Z</time></trkpt><trkpt lat="45.7773899" lon="13.6329267"><ele>112.71428571428572</ele><time>2026-04-06T07:21:07.096Z</time></trkpt><trkpt lat="45.7773734" lon="13.6330338"><ele>110.85714285714286</ele><time>2026-04-06T07:21:09.096Z</time></trkpt><trkpt lat="45.7773595" lon="13.6331397"><ele>109.0</ele><time>2026-04-06T07:21:11.096Z</time></trkpt><trkpt lat="45.777344" lon="13.6332403"><ele>109.00000000000001</ele><time>2026-04-06T07:21:13.096Z</time></trkpt><trkpt lat="45.7773296" lon="13.6333449"><ele>109.0</ele><time>2026-04-06T07:21:15.096Z</time></trkpt><trkpt lat="45.7773248" lon="13.6334494"><ele>109.0</ele><time>2026-04-06T07:21:17.096Z</time></trkpt><trkpt lat="45.7773302" lon="13.6335454"><ele>109.0</ele><time>2026-04-06T07:21:19.095Z</time></trkpt><trkpt lat="45.7773375" lon="13.6336725"><ele>109.00000000000001</ele><time>2026-04-06T07:21:22.096Z</time></trkpt><trkpt lat="45.7773436" lon="13.6338094"><ele>109.0</ele><time>2026-04-06T07:21:25.095Z</time></trkpt><trkpt lat="45.7773493" lon="13.6339073"><ele>108.71428571428572</ele><time>2026-04-06T07:21:27.095Z</time></trkpt><trkpt lat="45.7773518" lon="13.6340061"><ele>108.42857142857143</ele><time>2026-04-06T07:21:29.096Z</time></trkpt><trkpt lat="45.7773558" lon="13.6341028"><ele>108.14285714285714</ele><time>2026-04-06T07:21:31.096Z</time></trkpt><trkpt lat="45.7773571" lon="13.6341969"><ele>107.85714285714286</ele><time>2026-04-06T07:21:33.096Z</time></trkpt><trkpt lat="45.7773552" lon="13.6342949"><ele>107.57142857142857</ele><time>2026-04-06T07:21:35.096Z</time></trkpt><trkpt lat="45.7773531" lon="13.6343872"><ele>107.28571428571429</ele><time>2026-04-06T07:21:37.095Z</time></trkpt><trkpt lat="45.7773435" lon="13.6344876"><ele>107.0</ele><time>2026-04-06T07:21:39.096Z</time></trkpt><trkpt lat="45.7773237" lon="13.6345937"><ele>106.66666666666666</ele><time>2026-04-06T07:21:41.096Z</time></trkpt><trkpt lat="45.7772916" lon="13.6346996"><ele>106.33333333333333</ele><time>2026-04-06T07:21:43.096Z</time></trkpt><trkpt lat="45.77726" lon="13.6348127"><ele>106.0</ele><time>2026-04-06T07:21:45.096Z</time></trkpt><trkpt lat="45.7772487" lon="13.6349261"><ele>105.66666666666666</ele><time>2026-04-06T07:21:47.096Z</time></trkpt><trkpt lat="45.7772448" lon="13.635034"><ele>105.33333333333333</ele><time>2026-04-06T07:21:49.096Z</time></trkpt><trkpt lat="45.7772434" lon="13.63513"><ele>105.0</ele><time>2026-04-06T07:21:51.096Z</time></trkpt><trkpt lat="45.7772516" lon="13.6352549"><ele>104.83333333333333</ele><time>2026-04-06T07:21:54.096Z</time></trkpt><trkpt lat="45.7772708" lon="13.63538"><ele>104.66666666666666</ele><time>2026-04-06T07:21:57.096Z</time></trkpt><trkpt lat="45.7772833" lon="13.6355014"><ele>104.5</ele><time>2026-04-06T07:22:00.096Z</time></trkpt><trkpt lat="45.7773068" lon="13.6356186"><ele>104.33333333333333</ele><time>2026-04-06T07:22:03.096Z</time></trkpt><trkpt lat="45.7773385" lon="13.6357353"><ele>104.16666666666666</ele><time>2026-04-06T07:22:06.096Z</time></trkpt><trkpt lat="45.7773705" lon="13.6358561"><ele>104.0</ele><time>2026-04-06T07:22:09.096Z</time></trkpt><trkpt lat="45.7773987" lon="13.6359804"><ele>103.99999999999999</ele><time>2026-04-06T07:22:12.096Z</time></trkpt><trkpt lat="45.7774253" lon="13.6361089"><ele>104.0</ele><time>2026-04-06T07:22:15.095Z</time></trkpt><trkpt lat="45.7774487" lon="13.6362376"><ele>104.0</ele><time>2026-04-06T07:22:18.096Z</time></trkpt><trkpt lat="45.7774749" lon="13.6363625"><ele>104.0</ele><time>2026-04-06T07:22:21.096Z</time></trkpt><trkpt lat="45.7774935" lon="13.6364926"><ele>103.99999999999999</ele><time>2026-04-06T07:22:24.095Z</time></trkpt><trkpt lat="45.7775108" lon="13.6365843"><ele>104.0</ele><time>2026-04-06T07:22:26.096Z</time></trkpt><trkpt lat="45.777532" lon="13.6366926"><ele>103.99999999999999</ele><time>2026-04-06T07:22:28.096Z</time></trkpt><trkpt lat="45.7775585" lon="13.6368196"><ele>104.0</ele><time>2026-04-06T07:22:30.095Z</time></trkpt><trkpt lat="45.7775824" lon="13.6369359"><ele>104.0</ele><time>2026-04-06T07:22:32.096Z</time></trkpt><trkpt lat="45.7776001" lon="13.6370587"><ele>104.0</ele><time>2026-04-06T07:22:34.096Z</time></trkpt><trkpt lat="45.7776314" lon="13.637167"><ele>103.99999999999999</ele><time>2026-04-06T07:22:36.095Z</time></trkpt><trkpt lat="45.7776476" lon="13.6372597"><ele>104.0</ele><time>2026-04-06T07:22:38.096Z</time></trkpt><trkpt lat="45.7776652" lon="13.6373528"><ele>103.99999999999999</ele><time>2026-04-06T07:22:40.096Z</time></trkpt><trkpt lat="45.7776888" lon="13.6374504"><ele>104.0</ele><time>2026-04-06T07:22:43.095Z</time></trkpt><trkpt lat="45.7777137" lon="13.6375627"><ele>104.0</ele><time>2026-04-06T07:22:47.096Z</time></trkpt><trkpt lat="45.7777354" lon="13.6376634"><ele>104.0</ele><time>2026-04-06T07:22:50.096Z</time></trkpt><trkpt lat="45.7777405" lon="13.6377728"><ele>103.99999999999999</ele><time>2026-04-06T07:22:53.096Z</time></trkpt><trkpt lat="45.7777499" lon="13.6378801"><ele>104.0</ele><time>2026-04-06T07:22:56.095Z</time></trkpt><trkpt lat="45.777769" lon="13.6379791"><ele>103.99999999999999</ele><time>2026-04-06T07:22:59.096Z</time></trkpt><trkpt lat="45.7777811" lon="13.6380847"><ele>104.0</ele><time>2026-04-06T07:23:02.096Z</time></trkpt><trkpt lat="45.7777966" lon="13.638185"><ele>104.0</ele><time>2026-04-06T07:23:05.096Z</time></trkpt><trkpt lat="45.777814" lon="13.6383045"><ele>104.0</ele><time>2026-04-06T07:23:09.095Z</time></trkpt><trkpt lat="45.7778218" lon="13.6384083"><ele>103.99999999999999</ele><time>2026-04-06T07:23:12.096Z</time></trkpt><trkpt lat="45.777831" lon="13.6385189"><ele>104.0</ele><time>2026-04-06T07:23:15.096Z</time></trkpt><trkpt lat="45.7778364" lon="13.6386299"><ele>104.0</ele><time>2026-04-06T07:23:18.096Z</time></trkpt><trkpt lat="45.7778486" lon="13.6387362"><ele>104.0</ele><time>2026-04-06T07:23:21.095Z</time></trkpt><trkpt lat="45.7778619" lon="13.6388507"><ele>104.0</ele><time>2026-04-06T07:23:24.096Z</time></trkpt><trkpt lat="45.7778637" lon="13.6389523"><ele>104.0</ele><time>2026-04-06T07:23:27.096Z</time></trkpt><trkpt lat="45.7778645" lon="13.6390508"><ele>104.0</ele><time>2026-04-06T07:23:30.096Z</time></trkpt><trkpt lat="45.777878" lon="13.6391526"><ele>104.0</ele><time>2026-04-06T07:23:33.096Z</time></trkpt><trkpt lat="45.7778872" lon="13.6392571"><ele>104.0</ele><time>2026-04-06T07:23:36.096Z</time></trkpt><trkpt lat="45.777889" lon="13.6393568"><ele>104.0</ele><time>2026-04-06T07:23:39.096Z</time></trkpt><trkpt lat="45.7778834" lon="13.6394468"><ele>104.0</ele><time>2026-04-06T07:23:42.096Z</time></trkpt><trkpt lat="45.7778955" lon="13.6395382"><ele>104.0</ele><time>2026-04-06T07:23:45.096Z</time></trkpt><trkpt lat="45.7779241" lon="13.6396426"><ele>104.0</ele><time>2026-04-06T07:23:49.096Z</time></trkpt><trkpt lat="45.7779331" lon="13.6397335"><ele>104.0</ele><time>2026-04-06T07:23:53.096Z</time></trkpt><trkpt lat="45.7779523" lon="13.6398417"><ele>104.0</ele><time>2026-04-06T07:23:58.096Z</time></trkpt><trkpt lat="45.77798" lon="13.6399235"><ele>104.0</ele><time>2026-04-06T07:24:02.096Z</time></trkpt><trkpt lat="45.7780241" lon="13.6399891"><ele>104.0</ele><time>2026-04-06T07:24:06.096Z</time></trkpt><trkpt lat="45.7780982" lon="13.6400383"><ele>104.0</ele><time>2026-04-06T07:24:10.096Z</time></trkpt><trkpt lat="45.7781599" lon="13.6400881"><ele>104.0</ele><time>2026-04-06T07:24:13.096Z</time></trkpt><trkpt lat="45.778221" lon="13.6401384"><ele>104.0</ele><time>2026-04-06T07:24:16.095Z</time></trkpt><trkpt lat="45.7782843" lon="13.6401773"><ele>104.0</ele><time>2026-04-06T07:24:19.096Z</time></trkpt><trkpt lat="45.7783419" lon="13.6402235"><ele>104.0</ele><time>2026-04-06T07:24:22.096Z</time></trkpt><trkpt lat="45.778408" lon="13.6402918"><ele>104.0</ele><time>2026-04-06T07:24:26.096Z</time></trkpt><trkpt lat="45.7784787" lon="13.6403392"><ele>104.85714285714285</ele><time>2026-04-06T07:24:31.096Z</time></trkpt><trkpt lat="45.7785515" lon="13.6403374"><ele>105.71428571428572</ele><time>2026-04-06T07:24:34.095Z</time></trkpt><trkpt lat="45.778615" lon="13.6402943"><ele>106.57142857142857</ele><time>2026-04-06T07:24:37.096Z</time></trkpt><trkpt lat="45.7786783" lon="13.6402409"><ele>107.42857142857142</ele><time>2026-04-06T07:24:40.096Z</time></trkpt><trkpt lat="45.7787414" lon="13.640189"><ele>108.28571428571428</ele><time>2026-04-06T07:24:43.096Z</time></trkpt><trkpt lat="45.7788022" lon="13.6401395"><ele>109.14285714285714</ele><time>2026-04-06T07:24:46.095Z</time></trkpt><trkpt lat="45.7788596" lon="13.6400854"><ele>110.0</ele><time>2026-04-06T07:24:49.096Z</time></trkpt><trkpt lat="45.7789213" lon="13.6400312"><ele>109.99999999999999</ele><time>2026-04-06T07:24:52.095Z</time></trkpt><trkpt lat="45.7789882" lon="13.6399828"><ele>110.0</ele><time>2026-04-06T07:24:55.096Z</time></trkpt><trkpt lat="45.7790562" lon="13.6399417"><ele>110.0</ele><time>2026-04-06T07:24:58.096Z</time></trkpt><trkpt lat="45.7791217" lon="13.6399019"><ele>110.0</ele><time>2026-04-06T07:25:01.095Z</time></trkpt><trkpt lat="45.7791918" lon="13.6398683"><ele>110.0</ele><time>2026-04-06T07:25:04.096Z</time></trkpt><trkpt lat="45.7792631" lon="13.6398441"><ele>109.99999999999999</ele><time>2026-04-06T07:25:07.096Z</time></trkpt><trkpt lat="45.7793402" lon="13.6398201"><ele>110.0</ele><time>2026-04-06T07:25:10.095Z</time></trkpt><trkpt lat="45.7794211" lon="13.6398"><ele>110.49999999999999</ele><time>2026-04-06T07:25:13.096Z</time></trkpt><trkpt lat="45.7794965" lon="13.639783"><ele>111.0</ele><time>2026-04-06T07:25:16.096Z</time></trkpt><trkpt lat="45.7795688" lon="13.6397642"><ele>111.5</ele><time>2026-04-06T07:25:19.096Z</time></trkpt><trkpt lat="45.7796438" lon="13.6397559"><ele>112.0</ele><time>2026-04-06T07:25:22.096Z</time></trkpt><trkpt lat="45.7797215" lon="13.6397562"><ele>112.49999999999999</ele><time>2026-04-06T07:25:25.096Z</time></trkpt><trkpt lat="45.7797905" lon="13.6397601"><ele>113.0</ele><time>2026-04-06T07:25:28.096Z</time></trkpt><trkpt lat="45.7798698" lon="13.6397589"><ele>113.0</ele><time>2026-04-06T07:25:31.096Z</time></trkpt><trkpt lat="45.779949" lon="13.6397569"><ele>113.0</ele><time>2026-04-06T07:25:34.096Z</time></trkpt><trkpt lat="45.7800258" lon="13.639759"><ele>113.0</ele><time>2026-04-06T07:25:37.096Z</time></trkpt><trkpt lat="45.7800992" lon="13.639772"><ele>113.0</ele><time>2026-04-06T07:25:40.096Z</time></trkpt><trkpt lat="45.7801712" lon="13.6398071"><ele>113.0</ele><time>2026-04-06T07:25:43.096Z</time></trkpt><trkpt lat="45.780236" lon="13.6398464"><ele>113.0</ele><time>2026-04-06T07:25:46.096Z</time></trkpt><trkpt lat="45.7802959" lon="13.6398848"><ele>113.0</ele><time>2026-04-06T07:25:50.096Z</time></trkpt><trkpt lat="45.780362" lon="13.6399242"><ele>113.71428571428572</ele><time>2026-04-06T07:28:12.095Z</time></trkpt><trkpt lat="45.7804279" lon="13.6399656"><ele>114.42857142857142</ele><time>2026-04-06T07:28:17.096Z</time></trkpt><trkpt lat="45.7804913" lon="13.6400018"><ele>115.14285714285714</ele><time>2026-04-06T07:28:21.096Z</time></trkpt><trkpt lat="45.78056" lon="13.6400523"><ele>115.85714285714286</ele><time>2026-04-06T07:28:25.096Z</time></trkpt><trkpt lat="45.780629" lon="13.6401051"><ele>116.57142857142858</ele><time>2026-04-06T07:28:29.096Z</time></trkpt><trkpt lat="45.7806921" lon="13.6401534"><ele>117.28571428571428</ele><time>2026-04-06T07:28:33.096Z</time></trkpt><trkpt lat="45.7807521" lon="13.6401913"><ele>118.0</ele><time>2026-04-06T07:28:37.096Z</time></trkpt><trkpt lat="45.7808112" lon="13.6402472"><ele>118.00000000000001</ele><time>2026-04-06T07:28:41.096Z</time></trkpt><trkpt lat="45.7808757" lon="13.6402956"><ele>118.0</ele><time>2026-04-06T07:28:45.095Z</time></trkpt><trkpt lat="45.7809401" lon="13.6403499"><ele>118.0</ele><time>2026-04-06T07:28:49.095Z</time></trkpt><trkpt lat="45.7810093" lon="13.6404063"><ele>118.0</ele><time>2026-04-06T07:28:53.096Z</time></trkpt><trkpt lat="45.7810809" lon="13.6404598"><ele>118.00000000000001</ele><time>2026-04-06T07:28:57.096Z</time></trkpt><trkpt lat="45.7811474" lon="13.6405241"><ele>118.0</ele><time>2026-04-06T07:29:01.096Z</time></trkpt><trkpt lat="45.7812058" lon="13.6405585"><ele>119.14285714285714</ele><time>2026-04-06T07:29:04.096Z</time></trkpt><trkpt lat="45.7812631" lon="13.6405986"><ele>120.28571428571429</ele><time>2026-04-06T07:29:58.096Z</time></trkpt><trkpt lat="45.7813286" lon="13.6406195"><ele>121.42857142857143</ele><time>2026-04-06T07:30:03.096Z</time></trkpt><trkpt lat="45.7814063" lon="13.6406349"><ele>122.57142857142857</ele><time>2026-04-06T07:30:07.095Z</time></trkpt><trkpt lat="45.7814789" lon="13.6406306"><ele>123.71428571428572</ele><time>2026-04-06T07:30:11.096Z</time></trkpt><trkpt lat="45.7815395" lon="13.6405995"><ele>124.85714285714286</ele><time>2026-04-06T07:30:14.096Z</time></trkpt><trkpt lat="45.7816183" lon="13.6405675"><ele>126.0</ele><time>2026-04-06T07:30:18.096Z</time></trkpt><trkpt lat="45.7816752" lon="13.6405255"><ele>126.0</ele><time>2026-04-06T07:30:21.095Z</time></trkpt><trkpt lat="45.7817274" lon="13.6404749"><ele>126.0</ele><time>2026-04-06T07:30:24.095Z</time></trkpt><trkpt lat="45.7817905" lon="13.6404022"><ele>126.0</ele><time>2026-04-06T07:30:28.095Z</time></trkpt><trkpt lat="45.7818488" lon="13.6403291"><ele>126.0</ele><time>2026-04-06T07:30:32.095Z</time></trkpt><trkpt lat="45.781894" lon="13.640261"><ele>126.0</ele><time>2026-04-06T07:31:40.096Z</time></trkpt><trkpt lat="45.781942" lon="13.6401987"><ele>126.0</ele><time>2026-04-06T07:31:44.095Z</time></trkpt><trkpt lat="45.7820002" lon="13.6401305"><ele>126.0</ele><time>2026-04-06T07:31:48.096Z</time></trkpt><trkpt lat="45.7820783" lon="13.6400797"><ele>127.33333333333333</ele><time>2026-04-06T07:31:52.096Z</time></trkpt><trkpt lat="45.7821477" lon="13.6400578"><ele>128.66666666666666</ele><time>2026-04-06T07:31:55.096Z</time></trkpt><trkpt lat="45.7822209" lon="13.6400516"><ele>130.0</ele><time>2026-04-06T07:31:58.096Z</time></trkpt><trkpt lat="45.7823057" lon="13.6400509"><ele>131.33333333333331</ele><time>2026-04-06T07:32:02.096Z</time></trkpt><trkpt lat="45.7823808" lon="13.6400489"><ele>132.66666666666666</ele><time>2026-04-06T07:32:05.096Z</time></trkpt><trkpt lat="45.7824572" lon="13.6400347"><ele>134.0</ele><time>2026-04-06T07:32:08.096Z</time></trkpt><trkpt lat="45.7825386" lon="13.6400175"><ele>134.0</ele><time>2026-04-06T07:32:11.096Z</time></trkpt><trkpt lat="45.7826175" lon="13.64001"><ele>134.0</ele><time>2026-04-06T07:32:14.095Z</time></trkpt><trkpt lat="45.7826976" lon="13.6400101"><ele>134.0</ele><time>2026-04-06T07:32:17.096Z</time></trkpt><trkpt lat="45.782782" lon="13.6400248"><ele>134.0</ele><time>2026-04-06T07:32:20.095Z</time></trkpt><trkpt lat="45.7828694" lon="13.6400582"><ele>134.0</ele><time>2026-04-06T07:32:23.096Z</time></trkpt><trkpt lat="45.7829566" lon="13.6401045"><ele>134.0</ele><time>2026-04-06T07:32:26.096Z</time></trkpt><trkpt lat="45.7830199" lon="13.6401353"><ele>133.83333333333331</ele><time>2026-04-06T07:32:28.096Z</time></trkpt><trkpt lat="45.7831026" lon="13.6401738"><ele>133.66666666666666</ele><time>2026-04-06T07:32:31.096Z</time></trkpt><trkpt lat="45.7831922" lon="13.6402123"><ele>133.5</ele><time>2026-04-06T07:32:34.095Z</time></trkpt><trkpt lat="45.7832822" lon="13.6402417"><ele>133.33333333333334</ele><time>2026-04-06T07:32:37.096Z</time></trkpt><trkpt lat="45.7833427" lon="13.6402672"><ele>133.16666666666669</ele><time>2026-04-06T07:32:39.096Z</time></trkpt><trkpt lat="45.7834046" lon="13.6402942"><ele>133.0</ele><time>2026-04-06T07:32:41.096Z</time></trkpt><trkpt lat="45.7834898" lon="13.6403445"><ele>133.28571428571428</ele><time>2026-04-06T07:32:44.095Z</time></trkpt><trkpt lat="45.7835451" lon="13.6403904"><ele>133.57142857142856</ele><time>2026-04-06T07:32:46.096Z</time></trkpt><trkpt lat="45.7835962" lon="13.6404466"><ele>133.85714285714286</ele><time>2026-04-06T07:32:48.095Z</time></trkpt><trkpt lat="45.7836401" lon="13.6405154"><ele>134.14285714285714</ele><time>2026-04-06T07:32:50.095Z</time></trkpt><trkpt lat="45.7836811" lon="13.6405941"><ele>134.42857142857142</ele><time>2026-04-06T07:32:52.095Z</time></trkpt><trkpt lat="45.7837179" lon="13.6406806"><ele>134.71428571428572</ele><time>2026-04-06T07:32:54.096Z</time></trkpt><trkpt lat="45.7837501" lon="13.6407729"><ele>135.0</ele><time>2026-04-06T07:32:56.096Z</time></trkpt><trkpt lat="45.783785" lon="13.6408626"><ele>135.0</ele><time>2026-04-06T07:32:58.095Z</time></trkpt><trkpt lat="45.7838156" lon="13.64095"><ele>135.0</ele><time>2026-04-06T07:33:00.096Z</time></trkpt><trkpt lat="45.783848" lon="13.6410432"><ele>135.0</ele><time>2026-04-06T07:33:02.095Z</time></trkpt><trkpt lat="45.7838835" lon="13.6411327"><ele>135.0</ele><time>2026-04-06T07:33:04.096Z</time></trkpt><trkpt lat="45.7839165" lon="13.6412245"><ele>135.0</ele><time>2026-04-06T07:33:06.096Z</time></trkpt><trkpt lat="45.7839498" lon="13.641316"><ele>135.0</ele><time>2026-04-06T07:33:08.095Z</time></trkpt><trkpt lat="45.7839861" lon="13.6414065"><ele>135.0</ele><time>2026-04-06T07:33:10.096Z</time></trkpt><trkpt lat="45.7840258" lon="13.6414956"><ele>135.28571428571428</ele><time>2026-04-06T07:33:12.096Z</time></trkpt><trkpt lat="45.7840643" lon="13.6415851"><ele>135.57142857142856</ele><time>2026-04-06T07:33:14.095Z</time></trkpt><trkpt lat="45.7841003" lon="13.6416745"><ele>135.85714285714286</ele><time>2026-04-06T07:33:16.096Z</time></trkpt><trkpt lat="45.7841389" lon="13.6417642"><ele>136.14285714285714</ele><time>2026-04-06T07:33:18.095Z</time></trkpt><trkpt lat="45.7841706" lon="13.6418529"><ele>136.42857142857144</ele><time>2026-04-06T07:33:20.095Z</time></trkpt><trkpt lat="45.7842067" lon="13.6419543"><ele>136.71428571428572</ele><time>2026-04-06T07:33:22.096Z</time></trkpt><trkpt lat="45.7842465" lon="13.6420487"><ele>137.0</ele><time>2026-04-06T07:33:24.096Z</time></trkpt><trkpt lat="45.7842849" lon="13.6421436"><ele>137.00000000000003</ele><time>2026-04-06T07:33:26.096Z</time></trkpt><trkpt lat="45.7843212" lon="13.6422384"><ele>137.0</ele><time>2026-04-06T07:33:28.095Z</time></trkpt><trkpt lat="45.7843554" lon="13.642334"><ele>137.0</ele><time>2026-04-06T07:33:30.096Z</time></trkpt><trkpt lat="45.7843916" lon="13.6424238"><ele>137.0</ele><time>2026-04-06T07:33:32.095Z</time></trkpt><trkpt lat="45.7844296" lon="13.6425045"><ele>137.0</ele><time>2026-04-06T07:33:34.095Z</time></trkpt><trkpt lat="45.7844655" lon="13.642586"><ele>137.00000000000003</ele><time>2026-04-06T07:33:36.096Z</time></trkpt><trkpt lat="45.7845069" lon="13.6427008"><ele>137.0</ele><time>2026-04-06T07:33:39.096Z</time></trkpt><trkpt lat="45.784552" lon="13.6427912"><ele>137.00000000000003</ele><time>2026-04-06T07:33:42.096Z</time></trkpt><trkpt lat="45.7845912" lon="13.6428781"><ele>137.0</ele><time>2026-04-06T07:33:45.096Z</time></trkpt><trkpt lat="45.7846289" lon="13.6429662"><ele>137.0</ele><time>2026-04-06T07:33:48.096Z</time></trkpt><trkpt lat="45.7846695" lon="13.6430589"><ele>137.0</ele><time>2026-04-06T07:33:51.096Z</time></trkpt><trkpt lat="45.7847036" lon="13.6431551"><ele>137.0</ele><time>2026-04-06T07:33:54.095Z</time></trkpt><trkpt lat="45.7847372" lon="13.6432605"><ele>137.00000000000003</ele><time>2026-04-06T07:33:58.096Z</time></trkpt><trkpt lat="45.7847885" lon="13.6433265"><ele>137.0</ele><time>2026-04-06T07:34:01.096Z</time></trkpt><trkpt lat="45.7848609" lon="13.6433667"><ele>137.0</ele><time>2026-04-06T07:34:04.096Z</time></trkpt><trkpt lat="45.7849345" lon="13.6434005"><ele>137.0</ele><time>2026-04-06T07:34:07.096Z</time></trkpt><trkpt lat="45.7850065" lon="13.6434463"><ele>137.0</ele><time>2026-04-06T07:34:10.096Z</time></trkpt><trkpt lat="45.785087" lon="13.6434863"><ele>137.0</ele><time>2026-04-06T07:34:13.096Z</time></trkpt><trkpt lat="45.7851769" lon="13.643525"><ele>137.0</ele><time>2026-04-06T07:34:16.095Z</time></trkpt><trkpt lat="45.7852395" lon="13.643543"><ele>137.0</ele><time>2026-04-06T07:34:18.096Z</time></trkpt><trkpt lat="45.7853076" lon="13.643561"><ele>137.0</ele><time>2026-04-06T07:34:20.096Z</time></trkpt><trkpt lat="45.7853738" lon="13.6435915"><ele>137.0</ele><time>2026-04-06T07:34:22.096Z</time></trkpt><trkpt lat="45.7854446" lon="13.6436363"><ele>137.0</ele><time>2026-04-06T07:34:24.096Z</time></trkpt><trkpt lat="45.7855157" lon="13.6436929"><ele>137.0</ele><time>2026-04-06T07:34:26.096Z</time></trkpt><trkpt lat="45.7855815" lon="13.6437744"><ele>137.0</ele><time>2026-04-06T07:34:28.096Z</time></trkpt><trkpt lat="45.7856439" lon="13.6438719"><ele>137.0</ele><time>2026-04-06T07:34:30.096Z</time></trkpt><trkpt lat="45.7857201" lon="13.6439507"><ele>137.0</ele><time>2026-04-06T07:34:32.096Z</time></trkpt><trkpt lat="45.7858003" lon="13.644013"><ele>137.0</ele><time>2026-04-06T07:34:34.096Z</time></trkpt><trkpt lat="45.785874" lon="13.6440735"><ele>137.0</ele><time>2026-04-06T07:34:36.095Z</time></trkpt><trkpt lat="45.7859491" lon="13.6441289"><ele>137.0</ele><time>2026-04-06T07:34:38.096Z</time></trkpt><trkpt lat="45.7860156" lon="13.6441774"><ele>137.0</ele><time>2026-04-06T07:34:40.096Z</time></trkpt><trkpt lat="45.7860771" lon="13.6442263"><ele>137.0</ele><time>2026-04-06T07:34:42.096Z</time></trkpt><trkpt lat="45.7861363" lon="13.644277"><ele>137.14285714285717</ele><time>2026-04-06T07:34:44.095Z</time></trkpt><trkpt lat="45.7861991" lon="13.644328"><ele>137.28571428571428</ele><time>2026-04-06T07:34:46.096Z</time></trkpt><trkpt lat="45.7862631" lon="13.6443816"><ele>137.42857142857144</ele><time>2026-04-06T07:34:48.095Z</time></trkpt><trkpt lat="45.7863258" lon="13.6444278"><ele>137.57142857142858</ele><time>2026-04-06T07:34:50.096Z</time></trkpt><trkpt lat="45.7863874" lon="13.6444643"><ele>137.71428571428572</ele><time>2026-04-06T07:34:52.096Z</time></trkpt><trkpt lat="45.786447" lon="13.6444982"><ele>137.85714285714286</ele><time>2026-04-06T07:34:54.096Z</time></trkpt><trkpt lat="45.7865091" lon="13.6445331"><ele>138.0</ele><time>2026-04-06T07:34:56.096Z</time></trkpt><trkpt lat="45.7865877" lon="13.6445778"><ele>138.0</ele><time>2026-04-06T07:34:59.096Z</time></trkpt><trkpt lat="45.7866538" lon="13.644629"><ele>138.0</ele><time>2026-04-06T07:35:02.095Z</time></trkpt><trkpt lat="45.7867242" lon="13.6446572"><ele>138.0</ele><time>2026-04-06T07:35:05.096Z</time></trkpt><trkpt lat="45.7867968" lon="13.6446694"><ele>138.0</ele><time>2026-04-06T07:35:08.096Z</time></trkpt><trkpt lat="45.7868784" lon="13.6446695"><ele>138.0</ele><time>2026-04-06T07:35:11.095Z</time></trkpt><trkpt lat="45.786968" lon="13.6446724"><ele>138.0</ele><time>2026-04-06T07:35:14.096Z</time></trkpt><trkpt lat="45.7870339" lon="13.6446669"><ele>138.0</ele><time>2026-04-06T07:35:16.096Z</time></trkpt><trkpt lat="45.7871053" lon="13.6446499"><ele>138.0</ele><time>2026-04-06T07:35:18.096Z</time></trkpt><trkpt lat="45.7871824" lon="13.6446291"><ele>138.0</ele><time>2026-04-06T07:35:20.096Z</time></trkpt><trkpt lat="45.7872654" lon="13.6446015"><ele>138.0</ele><time>2026-04-06T07:35:22.096Z</time></trkpt><trkpt lat="45.78735" lon="13.6445676"><ele>138.0</ele><time>2026-04-06T07:35:24.095Z</time></trkpt><trkpt lat="45.7874309" lon="13.644527"><ele>138.0</ele><time>2026-04-06T07:35:26.096Z</time></trkpt><trkpt lat="45.7875052" lon="13.6444811"><ele>137.85714285714286</ele><time>2026-04-06T07:35:28.096Z</time></trkpt><trkpt lat="45.7875768" lon="13.6444424"><ele>137.71428571428572</ele><time>2026-04-06T07:35:30.096Z</time></trkpt><trkpt lat="45.7876446" lon="13.6444135"><ele>137.57142857142858</ele><time>2026-04-06T07:35:32.096Z</time></trkpt><trkpt lat="45.7877041" lon="13.6443689"><ele>137.42857142857144</ele><time>2026-04-06T07:35:34.096Z</time></trkpt><trkpt lat="45.7877568" lon="13.6443114"><ele>137.28571428571428</ele><time>2026-04-06T07:35:36.096Z</time></trkpt><trkpt lat="45.7878094" lon="13.6442465"><ele>137.14285714285717</ele><time>2026-04-06T07:35:38.096Z</time></trkpt><trkpt lat="45.7878673" lon="13.6441899"><ele>137.0</ele><time>2026-04-06T07:35:40.096Z</time></trkpt><trkpt lat="45.7879235" lon="13.6441411"><ele>137.83333333333331</ele><time>2026-04-06T07:35:42.096Z</time></trkpt><trkpt lat="45.7880029" lon="13.6440886"><ele>138.66666666666666</ele><time>2026-04-06T07:35:45.096Z</time></trkpt><trkpt lat="45.7880746" lon="13.6440348"><ele>139.5</ele><time>2026-04-06T07:35:48.096Z</time></trkpt><trkpt lat="45.7881471" lon="13.6439736"><ele>140.33333333333334</ele><time>2026-04-06T07:35:51.095Z</time></trkpt><trkpt lat="45.7882246" lon="13.6439334"><ele>141.16666666666669</ele><time>2026-04-06T07:35:54.096Z</time></trkpt><trkpt lat="45.7882929" lon="13.6439074"><ele>142.0</ele><time>2026-04-06T07:35:57.096Z</time></trkpt><trkpt lat="45.7883369" lon="13.6438404"><ele>142.0</ele><time>2026-04-06T07:36:10.096Z</time></trkpt><trkpt lat="45.788345" lon="13.6437423"><ele>142.0</ele><time>2026-04-06T07:36:27.095Z</time></trkpt><trkpt lat="45.7883746" lon="13.6436467"><ele>142.0</ele><time>2026-04-06T07:36:31.096Z</time></trkpt><trkpt lat="45.7884027" lon="13.643544"><ele>142.0</ele><time>2026-04-06T07:36:36.096Z</time></trkpt><trkpt lat="45.7884532" lon="13.6434596"><ele>142.0</ele><time>2026-04-06T07:36:40.096Z</time></trkpt><trkpt lat="45.7884961" lon="13.6433884"><ele>142.0</ele><time>2026-04-06T07:36:43.096Z</time></trkpt><trkpt lat="45.788552" lon="13.64331"><ele>142.0</ele><time>2026-04-06T07:36:47.096Z</time></trkpt><trkpt lat="45.7885823" lon="13.6432287"><ele>142.57142857142856</ele><time>2026-04-06T07:37:12.096Z</time></trkpt><trkpt lat="45.7886215" lon="13.6431404"><ele>143.14285714285714</ele><time>2026-04-06T07:37:16.095Z</time></trkpt><trkpt lat="45.7886642" lon="13.6430729"><ele>143.71428571428572</ele><time>2026-04-06T07:37:19.096Z</time></trkpt><trkpt lat="45.7887025" lon="13.6429893"><ele>144.28571428571428</ele><time>2026-04-06T07:37:22.095Z</time></trkpt><trkpt lat="45.7887424" lon="13.6428985"><ele>144.85714285714286</ele><time>2026-04-06T07:37:25.096Z</time></trkpt><trkpt lat="45.788775" lon="13.642805"><ele>145.42857142857142</ele><time>2026-04-06T07:37:28.096Z</time></trkpt><trkpt lat="45.7888026" lon="13.6426931"><ele>146.0</ele><time>2026-04-06T07:37:31.095Z</time></trkpt><trkpt lat="45.78883" lon="13.6425779"><ele>146.0</ele><time>2026-04-06T07:37:34.096Z</time></trkpt><trkpt lat="45.788843" lon="13.6424478"><ele>146.0</ele><time>2026-04-06T07:37:37.096Z</time></trkpt><trkpt lat="45.78884" lon="13.6423146"><ele>146.0</ele><time>2026-04-06T07:37:40.096Z</time></trkpt><trkpt lat="45.7888278" lon="13.6422213"><ele>146.0</ele><time>2026-04-06T07:37:42.096Z</time></trkpt><trkpt lat="45.7888182" lon="13.6421052"><ele>146.0</ele><time>2026-04-06T07:37:45.096Z</time></trkpt><trkpt lat="45.7888066" lon="13.6419954"><ele>146.0</ele><time>2026-04-06T07:37:48.096Z</time></trkpt><trkpt lat="45.7888088" lon="13.641876"><ele>145.5</ele><time>2026-04-06T07:37:51.096Z</time></trkpt><trkpt lat="45.7888279" lon="13.641754"><ele>145.0</ele><time>2026-04-06T07:37:54.096Z</time></trkpt><trkpt lat="45.7888564" lon="13.6416285"><ele>144.5</ele><time>2026-04-06T07:37:57.096Z</time></trkpt><trkpt lat="45.7889002" lon="13.6415125"><ele>144.0</ele><time>2026-04-06T07:38:00.096Z</time></trkpt><trkpt lat="45.7889344" lon="13.6413921"><ele>143.5</ele><time>2026-04-06T07:38:03.095Z</time></trkpt><trkpt lat="45.7889512" lon="13.6412966"><ele>143.0</ele><time>2026-04-06T07:38:05.096Z</time></trkpt><trkpt lat="45.7889535" lon="13.6411944"><ele>142.83333333333331</ele><time>2026-04-06T07:38:07.095Z</time></trkpt><trkpt lat="45.7889477" lon="13.6410866"><ele>142.66666666666666</ele><time>2026-04-06T07:38:09.096Z</time></trkpt><trkpt lat="45.7889402" lon="13.6409743"><ele>142.5</ele><time>2026-04-06T07:38:11.096Z</time></trkpt><trkpt lat="45.788935" lon="13.6408641"><ele>142.33333333333334</ele><time>2026-04-06T07:38:13.095Z</time></trkpt><trkpt lat="45.7889386" lon="13.6407659"><ele>142.16666666666669</ele><time>2026-04-06T07:38:15.096Z</time></trkpt><trkpt lat="45.7889513" lon="13.6406401"><ele>142.0</ele><time>2026-04-06T07:38:18.096Z</time></trkpt><trkpt lat="45.788979" lon="13.6405241"><ele>142.0</ele><time>2026-04-06T07:38:21.096Z</time></trkpt><trkpt lat="45.7890077" lon="13.6404297"><ele>142.0</ele><time>2026-04-06T07:38:24.095Z</time></trkpt><trkpt lat="45.7890291" lon="13.6403349"><ele>142.0</ele><time>2026-04-06T07:39:19.096Z</time></trkpt><trkpt lat="45.7890367" lon="13.6402311"><ele>142.0</ele><time>2026-04-06T07:39:23.096Z</time></trkpt><trkpt lat="45.7890673" lon="13.6401173"><ele>142.0</ele><time>2026-04-06T07:39:27.096Z</time></trkpt><trkpt lat="45.7890914" lon="13.6400182"><ele>142.0</ele><time>2026-04-06T07:39:30.096Z</time></trkpt><trkpt lat="45.7891234" lon="13.6399294"><ele>142.0</ele><time>2026-04-06T07:39:33.096Z</time></trkpt><trkpt lat="45.7891614" lon="13.6398564"><ele>142.0</ele><time>2026-04-06T07:39:36.095Z</time></trkpt><trkpt lat="45.7891684" lon="13.6397641"><ele>142.0</ele><time>2026-04-06T07:40:00.096Z</time></trkpt><trkpt lat="45.7892159" lon="13.6397048"><ele>142.0</ele><time>2026-04-06T07:40:05.096Z</time></trkpt><trkpt lat="45.7892671" lon="13.6396188"><ele>142.0</ele><time>2026-04-06T07:40:09.096Z</time></trkpt><trkpt lat="45.7892975" lon="13.6395373"><ele>142.0</ele><time>2026-04-06T07:40:12.096Z</time></trkpt><trkpt lat="45.789328" lon="13.6394265"><ele>142.0</ele><time>2026-04-06T07:40:16.096Z</time></trkpt><trkpt lat="45.7893407" lon="13.6393346"><ele>142.0</ele><time>2026-04-06T07:40:19.096Z</time></trkpt><trkpt lat="45.7893645" lon="13.6392409"><ele>143.0</ele><time>2026-04-06T07:40:23.096Z</time></trkpt><trkpt lat="45.7893925" lon="13.6391353"><ele>144.0</ele><time>2026-04-06T07:40:28.096Z</time></trkpt><trkpt lat="45.7893936" lon="13.6390252"><ele>145.0</ele><time>2026-04-06T07:40:32.096Z</time></trkpt><trkpt lat="45.7894017" lon="13.6389049"><ele>146.0</ele><time>2026-04-06T07:40:36.096Z</time></trkpt><trkpt lat="45.7894009" lon="13.6388135"><ele>147.0</ele><time>2026-04-06T07:40:39.096Z</time></trkpt><trkpt lat="45.7893977" lon="13.6387201"><ele>148.0</ele><time>2026-04-06T07:40:42.096Z</time></trkpt><trkpt lat="45.7894043" lon="13.6386036"><ele>148.0</ele><time>2026-04-06T07:40:46.096Z</time></trkpt><trkpt lat="45.7894203" lon="13.6385047"><ele>148.0</ele><time>2026-04-06T07:40:50.096Z</time></trkpt><trkpt lat="45.7894326" lon="13.6384119"><ele>148.0</ele><time>2026-04-06T07:40:55.095Z</time></trkpt><trkpt lat="45.7894626" lon="13.638317"><ele>148.0</ele><time>2026-04-06T07:41:01.095Z</time></trkpt><trkpt lat="45.7894816" lon="13.6382237"><ele>148.0</ele><time>2026-04-06T07:41:06.095Z</time></trkpt><trkpt lat="45.7894982" lon="13.6381363"><ele>148.0</ele><time>2026-04-06T07:41:11.095Z</time></trkpt><trkpt lat="45.7894661" lon="13.6380583"><ele>148.0</ele><time>2026-04-06T07:41:15.096Z</time></trkpt><trkpt lat="45.7894206" lon="13.6379687"><ele>148.0</ele><time>2026-04-06T07:41:20.096Z</time></trkpt><trkpt lat="45.7893545" lon="13.6379048"><ele>148.0</ele><time>2026-04-06T07:41:25.096Z</time></trkpt><trkpt lat="45.7892821" lon="13.6378478"><ele>148.0</ele><time>2026-04-06T07:41:29.096Z</time></trkpt><trkpt lat="45.7892304" lon="13.6377729"><ele>148.0</ele><time>2026-04-06T07:41:33.096Z</time></trkpt><trkpt lat="45.7891899" lon="13.637687"><ele>148.0</ele><time>2026-04-06T07:41:37.096Z</time></trkpt><trkpt lat="45.7891455" lon="13.6376163"><ele>148.0</ele><time>2026-04-06T07:41:41.096Z</time></trkpt><trkpt lat="45.7891102" lon="13.6375297"><ele>148.0</ele><time>2026-04-06T07:41:45.096Z</time></trkpt><trkpt lat="45.7891113" lon="13.6374361"><ele>151.0</ele><time>2026-04-06T07:41:49.096Z</time></trkpt><trkpt lat="45.7891473" lon="13.637345"><ele>151.0</ele><time>2026-04-06T07:42:06.096Z</time></trkpt></trkseg><trkseg><trkpt lat="45.7891293" lon="13.6375906"><ele>151.0</ele><time>2026-04-06T08:25:21.096Z</time></trkpt><trkpt lat="45.7891831" lon="13.637676"><ele>151.0</ele><time>2026-04-06T08:25:26.094Z</time></trkpt><trkpt lat="45.7892457" lon="13.6377832"><ele>151.0</ele><time>2026-04-06T08:25:29.097Z</time></trkpt><trkpt lat="45.7892998" lon="13.6378607"><ele>151.0</ele><time>2026-04-06T08:25:31.094Z</time></trkpt><trkpt lat="45.789364" lon="13.6379384"><ele>151.0</ele><time>2026-04-06T08:25:33.092Z</time></trkpt><trkpt lat="45.7894151" lon="13.6379923"><ele>151.0</ele><time>2026-04-06T08:25:35.098Z</time></trkpt><trkpt lat="45.7894814" lon="13.6380435"><ele>151.2857142857143</ele><time>2026-04-06T08:25:41.097Z</time></trkpt><trkpt lat="45.7895466" lon="13.6381035"><ele>151.57142857142858</ele><time>2026-04-06T08:25:46.096Z</time></trkpt><trkpt lat="45.7895951" lon="13.6380328"><ele>151.85714285714286</ele><time>2026-04-06T08:25:51.101Z</time></trkpt><trkpt lat="45.7896264" lon="13.6379291"><ele>152.14285714285717</ele><time>2026-04-06T08:25:56.115Z</time></trkpt><trkpt lat="45.7896331" lon="13.6378251"><ele>152.42857142857144</ele><time>2026-04-06T08:26:01.092Z</time></trkpt><trkpt lat="45.7896093" lon="13.6377393"><ele>152.71428571428572</ele><time>2026-04-06T08:26:05.098Z</time></trkpt><trkpt lat="45.7895901" lon="13.6376301"><ele>153.0</ele><time>2026-04-06T08:26:10.096Z</time></trkpt><trkpt lat="45.7895586" lon="13.6375252"><ele>153.0</ele><time>2026-04-06T08:26:15.098Z</time></trkpt><trkpt lat="45.7895427" lon="13.6374315"><ele>153.0</ele><time>2026-04-06T08:26:19.094Z</time></trkpt><trkpt lat="45.7895221" lon="13.6373206"><ele>153.0</ele><time>2026-04-06T08:26:23.119Z</time></trkpt><trkpt lat="45.7895113" lon="13.6372289"><ele>153.0</ele><time>2026-04-06T08:26:26.099Z</time></trkpt><trkpt lat="45.789512" lon="13.6371278"><ele>153.0</ele><time>2026-04-06T08:26:29.096Z</time></trkpt><trkpt lat="45.7895259" lon="13.6370205"><ele>153.0</ele><time>2026-04-06T08:26:32.093Z</time></trkpt><trkpt lat="45.7895211" lon="13.6369214"><ele>153.0</ele><time>2026-04-06T08:26:35.092Z</time></trkpt><trkpt lat="45.7894989" lon="13.6368138"><ele>152.85714285714286</ele><time>2026-04-06T08:26:38.098Z</time></trkpt><trkpt lat="45.7894779" lon="13.6367121"><ele>152.71428571428572</ele><time>2026-04-06T08:26:41.092Z</time></trkpt><trkpt lat="45.7894506" lon="13.6366126"><ele>152.57142857142856</ele><time>2026-04-06T08:26:44.091Z</time></trkpt><trkpt lat="45.7894282" lon="13.6365201"><ele>152.42857142857144</ele><time>2026-04-06T08:26:47.092Z</time></trkpt><trkpt lat="45.7894171" lon="13.6364275"><ele>152.2857142857143</ele><time>2026-04-06T08:26:50.097Z</time></trkpt><trkpt lat="45.789392" lon="13.6363415"><ele>152.14285714285714</ele><time>2026-04-06T08:26:53.096Z</time></trkpt><trkpt lat="45.7893682" lon="13.6362512"><ele>152.0</ele><time>2026-04-06T08:26:56.091Z</time></trkpt><trkpt lat="45.7893406" lon="13.6361606"><ele>152.66666666666666</ele><time>2026-04-06T08:26:59.101Z</time></trkpt><trkpt lat="45.7893106" lon="13.6360641"><ele>153.33333333333331</ele><time>2026-04-06T08:27:02.101Z</time></trkpt><trkpt lat="45.7892754" lon="13.6359673"><ele>154.0</ele><time>2026-04-06T08:27:05.091Z</time></trkpt><trkpt lat="45.7892422" lon="13.6358701"><ele>154.66666666666666</ele><time>2026-04-06T08:27:08.095Z</time></trkpt><trkpt lat="45.7892099" lon="13.6357793"><ele>155.33333333333334</ele><time>2026-04-06T08:27:11.094Z</time></trkpt><trkpt lat="45.7891775" lon="13.6356753"><ele>156.0</ele><time>2026-04-06T08:27:14.09Z</time></trkpt><trkpt lat="45.7891485" lon="13.6355587"><ele>156.0</ele><time>2026-04-06T08:27:17.095Z</time></trkpt><trkpt lat="45.7891192" lon="13.6354366"><ele>156.0</ele><time>2026-04-06T08:27:20.098Z</time></trkpt><trkpt lat="45.7890935" lon="13.6353231"><ele>156.0</ele><time>2026-04-06T08:27:23.095Z</time></trkpt><trkpt lat="45.789062" lon="13.6352046"><ele>156.0</ele><time>2026-04-06T08:27:26.117Z</time></trkpt><trkpt lat="45.7890446" lon="13.6350855"><ele>156.0</ele><time>2026-04-06T08:27:29.095Z</time></trkpt><trkpt lat="45.7890261" lon="13.6349764"><ele>156.0</ele><time>2026-04-06T08:27:32.097Z</time></trkpt><trkpt lat="45.78899" lon="13.6348627"><ele>156.66666666666666</ele><time>2026-04-06T08:27:35.097Z</time></trkpt><trkpt lat="45.7889522" lon="13.6347481"><ele>157.33333333333334</ele><time>2026-04-06T08:27:38.094Z</time></trkpt><trkpt lat="45.7889209" lon="13.63466"><ele>158.0</ele><time>2026-04-06T08:27:40.097Z</time></trkpt><trkpt lat="45.7888964" lon="13.6345723"><ele>158.66666666666669</ele><time>2026-04-06T08:27:42.094Z</time></trkpt><trkpt lat="45.7888744" lon="13.6344478"><ele>159.33333333333334</ele><time>2026-04-06T08:27:45.097Z</time></trkpt><trkpt lat="45.7888527" lon="13.6343253"><ele>160.0</ele><time>2026-04-06T08:27:48.096Z</time></trkpt><trkpt lat="45.7888338" lon="13.6342155"><ele>160.5</ele><time>2026-04-06T08:27:51.099Z</time></trkpt><trkpt lat="45.788816" lon="13.6340963"><ele>161.0</ele><time>2026-04-06T08:27:54.097Z</time></trkpt><trkpt lat="45.7888062" lon="13.6339859"><ele>161.5</ele><time>2026-04-06T08:27:57.125Z</time></trkpt><trkpt lat="45.7888037" lon="13.6338706"><ele>162.0</ele><time>2026-04-06T08:28:00.097Z</time></trkpt><trkpt lat="45.7887769" lon="13.6337521"><ele>162.5</ele><time>2026-04-06T08:28:03.096Z</time></trkpt><trkpt lat="45.7887411" lon="13.633648"><ele>163.0</ele><time>2026-04-06T08:28:06.095Z</time></trkpt><trkpt lat="45.7887016" lon="13.6335572"><ele>163.42857142857144</ele><time>2026-04-06T08:28:09.095Z</time></trkpt><trkpt lat="45.7886759" lon="13.6334611"><ele>163.85714285714283</ele><time>2026-04-06T08:28:12.101Z</time></trkpt><trkpt lat="45.7886372" lon="13.6333737"><ele>164.28571428571428</ele><time>2026-04-06T08:28:15.096Z</time></trkpt><trkpt lat="45.7885919" lon="13.6333004"><ele>164.71428571428572</ele><time>2026-04-06T08:28:18.097Z</time></trkpt><trkpt lat="45.7885428" lon="13.6332176"><ele>165.14285714285717</ele><time>2026-04-06T08:28:21.095Z</time></trkpt><trkpt lat="45.7884967" lon="13.6331414"><ele>165.57142857142856</ele><time>2026-04-06T08:28:24.097Z</time></trkpt><trkpt lat="45.7884441" lon="13.6330674"><ele>166.0</ele><time>2026-04-06T08:28:27.096Z</time></trkpt><trkpt lat="45.7883827" lon="13.6330133"><ele>165.0</ele><time>2026-04-06T08:28:30.093Z</time></trkpt><trkpt lat="45.7883279" lon="13.6329593"><ele>164.0</ele><time>2026-04-06T08:28:33.098Z</time></trkpt><trkpt lat="45.7882469" lon="13.6329002"><ele>163.0</ele><time>2026-04-06T08:28:36.092Z</time></trkpt><trkpt lat="45.7881858" lon="13.6328511"><ele>162.0</ele><time>2026-04-06T08:28:39.098Z</time></trkpt><trkpt lat="45.7881173" lon="13.6328007"><ele>161.0</ele><time>2026-04-06T08:28:42.095Z</time></trkpt><trkpt lat="45.7880477" lon="13.63274"><ele>160.0</ele><time>2026-04-06T08:28:45.102Z</time></trkpt><trkpt lat="45.7879809" lon="13.6326781"><ele>160.0</ele><time>2026-04-06T08:28:48.097Z</time></trkpt><trkpt lat="45.7879228" lon="13.6326321"><ele>160.0</ele><time>2026-04-06T08:28:51.096Z</time></trkpt><trkpt lat="45.7878562" lon="13.6325875"><ele>160.0</ele><time>2026-04-06T08:28:54.097Z</time></trkpt><trkpt lat="45.7877921" lon="13.6325304"><ele>160.0</ele><time>2026-04-06T08:28:57.099Z</time></trkpt><trkpt lat="45.7877461" lon="13.632454"><ele>160.0</ele><time>2026-04-06T08:29:00.099Z</time></trkpt><trkpt lat="45.7877497" lon="13.6323331"><ele>160.0</ele><time>2026-04-06T08:29:03.094Z</time></trkpt><trkpt lat="45.7877839" lon="13.6322314"><ele>160.0</ele><time>2026-04-06T08:29:06.098Z</time></trkpt><trkpt lat="45.7878189" lon="13.6321299"><ele>160.0</ele><time>2026-04-06T08:29:09.096Z</time></trkpt><trkpt lat="45.7878482" lon="13.6320282"><ele>160.0</ele><time>2026-04-06T08:29:12.097Z</time></trkpt><trkpt lat="45.7878582" lon="13.6319214"><ele>160.0</ele><time>2026-04-06T08:29:15.09Z</time></trkpt><trkpt lat="45.7878554" lon="13.6318226"><ele>160.0</ele><time>2026-04-06T08:29:18.095Z</time></trkpt><trkpt lat="45.7878452" lon="13.6317281"><ele>160.0</ele><time>2026-04-06T08:29:21.091Z</time></trkpt><trkpt lat="45.7878172" lon="13.6316401"><ele>160.0</ele><time>2026-04-06T08:29:24.098Z</time></trkpt><trkpt lat="45.7877743" lon="13.6315499"><ele>160.0</ele><time>2026-04-06T08:29:27.093Z</time></trkpt><trkpt lat="45.7877182" lon="13.6314685"><ele>160.33333333333334</ele><time>2026-04-06T08:29:30.1Z</time></trkpt><trkpt lat="45.7876561" lon="13.6313922"><ele>160.66666666666669</ele><time>2026-04-06T08:29:33.096Z</time></trkpt><trkpt lat="45.7876046" lon="13.6312942"><ele>161.0</ele><time>2026-04-06T08:29:36.099Z</time></trkpt><trkpt lat="45.7875794" lon="13.6312056"><ele>161.33333333333334</ele><time>2026-04-06T08:29:39.096Z</time></trkpt><trkpt lat="45.7875487" lon="13.6311008"><ele>161.66666666666666</ele><time>2026-04-06T08:29:43.09Z</time></trkpt><trkpt lat="45.7875204" lon="13.631007"><ele>162.0</ele><time>2026-04-06T08:29:46.097Z</time></trkpt><trkpt lat="45.7874746" lon="13.6309113"><ele>162.0</ele><time>2026-04-06T08:29:49.095Z</time></trkpt><trkpt lat="45.787409" lon="13.6308381"><ele>162.0</ele><time>2026-04-06T08:29:52.099Z</time></trkpt><trkpt lat="45.787342" lon="13.6307878"><ele>162.0</ele><time>2026-04-06T08:29:55.099Z</time></trkpt><trkpt lat="45.7872826" lon="13.6307517"><ele>162.0</ele><time>2026-04-06T08:29:58.101Z</time></trkpt><trkpt lat="45.7872119" lon="13.6306921"><ele>162.0</ele><time>2026-04-06T08:30:02.091Z</time></trkpt><trkpt lat="45.7871661" lon="13.6306156"><ele>162.0</ele><time>2026-04-06T08:30:06.098Z</time></trkpt><trkpt lat="45.7871144" lon="13.630527"><ele>162.0</ele><time>2026-04-06T08:30:10.097Z</time></trkpt><trkpt lat="45.7870761" lon="13.6304505"><ele>162.0</ele><time>2026-04-06T08:30:14.098Z</time></trkpt><trkpt lat="45.7870417" lon="13.6303584"><ele>162.0</ele><time>2026-04-06T08:30:19.102Z</time></trkpt><trkpt lat="45.7870098" lon="13.6302633"><ele>162.0</ele><time>2026-04-06T08:30:23.1Z</time></trkpt><trkpt lat="45.7869864" lon="13.6301607"><ele>162.0</ele><time>2026-04-06T08:30:27.1Z</time></trkpt><trkpt lat="45.7869832" lon="13.6300573"><ele>162.0</ele><time>2026-04-06T08:30:31.096Z</time></trkpt><trkpt lat="45.7869869" lon="13.6299543"><ele>162.0</ele><time>2026-04-06T08:30:35.094Z</time></trkpt><trkpt lat="45.7869914" lon="13.6298474"><ele>162.83333333333334</ele><time>2026-04-06T08:30:39.095Z</time></trkpt><trkpt lat="45.786995" lon="13.6297333"><ele>163.66666666666666</ele><time>2026-04-06T08:30:43.094Z</time></trkpt><trkpt lat="45.7870057" lon="13.6296173"><ele>164.5</ele><time>2026-04-06T08:30:47.103Z</time></trkpt><trkpt lat="45.7870113" lon="13.6295068"><ele>165.33333333333331</ele><time>2026-04-06T08:30:51.094Z</time></trkpt><trkpt lat="45.7870175" lon="13.6293982"><ele>166.16666666666666</ele><time>2026-04-06T08:30:55.096Z</time></trkpt><trkpt lat="45.7870244" lon="13.6292968"><ele>167.0</ele><time>2026-04-06T08:30:59.097Z</time></trkpt><trkpt lat="45.7870015" lon="13.6291925"><ele>167.42857142857142</ele><time>2026-04-06T08:31:03.098Z</time></trkpt><trkpt lat="45.7869765" lon="13.6291047"><ele>167.85714285714286</ele><time>2026-04-06T08:31:06.099Z</time></trkpt><trkpt lat="45.7869488" lon="13.6289937"><ele>168.28571428571428</ele><time>2026-04-06T08:31:10.091Z</time></trkpt><trkpt lat="45.7869123" lon="13.6289176"><ele>168.71428571428572</ele><time>2026-04-06T08:31:13.098Z</time></trkpt><trkpt lat="45.7868784" lon="13.6288338"><ele>169.14285714285714</ele><time>2026-04-06T08:31:16.097Z</time></trkpt><trkpt lat="45.7868482" lon="13.6287539"><ele>169.57142857142858</ele><time>2026-04-06T08:31:19.097Z</time></trkpt><trkpt lat="45.7868225" lon="13.6286675"><ele>170.0</ele><time>2026-04-06T08:31:22.101Z</time></trkpt><trkpt lat="45.7867951" lon="13.6285739"><ele>170.2857142857143</ele><time>2026-04-06T08:31:25.097Z</time></trkpt><trkpt lat="45.7867717" lon="13.6284747"><ele>170.57142857142856</ele><time>2026-04-06T08:31:28.097Z</time></trkpt><trkpt lat="45.7867472" lon="13.6283833"><ele>170.85714285714286</ele><time>2026-04-06T08:31:31.097Z</time></trkpt><trkpt lat="45.7867282" lon="13.6282919"><ele>171.14285714285717</ele><time>2026-04-06T08:31:34.092Z</time></trkpt><trkpt lat="45.7867042" lon="13.6282004"><ele>171.42857142857144</ele><time>2026-04-06T08:31:37.101Z</time></trkpt><trkpt lat="45.7866808" lon="13.6281129"><ele>171.71428571428572</ele><time>2026-04-06T08:31:40.101Z</time></trkpt><trkpt lat="45.7866773" lon="13.6280195"><ele>172.0</ele><time>2026-04-06T08:31:43.091Z</time></trkpt><trkpt lat="45.7866996" lon="13.6279316"><ele>172.0</ele><time>2026-04-06T08:31:46.093Z</time></trkpt><trkpt lat="45.7867217" lon="13.6278216"><ele>172.0</ele><time>2026-04-06T08:31:50.098Z</time></trkpt><trkpt lat="45.7867403" lon="13.6277117"><ele>172.0</ele><time>2026-04-06T08:31:54.098Z</time></trkpt><trkpt lat="45.7867283" lon="13.6276045"><ele>172.0</ele><time>2026-04-06T08:31:57.093Z</time></trkpt><trkpt lat="45.7867191" lon="13.627503"><ele>172.0</ele><time>2026-04-06T08:32:00.097Z</time></trkpt><trkpt lat="45.7867183" lon="13.6274067"><ele>172.0</ele><time>2026-04-06T08:32:03.095Z</time></trkpt><trkpt lat="45.7867245" lon="13.6272963"><ele>172.2857142857143</ele><time>2026-04-06T08:32:07.093Z</time></trkpt><trkpt lat="45.786729" lon="13.6271726"><ele>172.57142857142858</ele><time>2026-04-06T08:32:11.118Z</time></trkpt><trkpt lat="45.786726" lon="13.6270798"><ele>172.85714285714286</ele><time>2026-04-06T08:32:14.098Z</time></trkpt><trkpt lat="45.7867052" lon="13.6269834"><ele>173.14285714285717</ele><time>2026-04-06T08:32:17.094Z</time></trkpt><trkpt lat="45.7866837" lon="13.6268828"><ele>173.42857142857144</ele><time>2026-04-06T08:32:21.094Z</time></trkpt><trkpt lat="45.7866574" lon="13.6267919"><ele>173.71428571428572</ele><time>2026-04-06T08:32:25.095Z</time></trkpt><trkpt lat="45.7866152" lon="13.6267123"><ele>174.0</ele><time>2026-04-06T08:32:28.104Z</time></trkpt><trkpt lat="45.7865583" lon="13.6266183"><ele>174.16666666666666</ele><time>2026-04-06T08:32:31.094Z</time></trkpt><trkpt lat="45.7865077" lon="13.6265406"><ele>174.33333333333334</ele><time>2026-04-06T08:32:34.098Z</time></trkpt><trkpt lat="45.7864623" lon="13.6264431"><ele>174.5</ele><time>2026-04-06T08:32:37.099Z</time></trkpt><trkpt lat="45.7864133" lon="13.6263405"><ele>174.66666666666669</ele><time>2026-04-06T08:32:40.097Z</time></trkpt><trkpt lat="45.7863689" lon="13.626259"><ele>174.83333333333334</ele><time>2026-04-06T08:32:43.096Z</time></trkpt><trkpt lat="45.7863291" lon="13.6261784"><ele>175.0</ele><time>2026-04-06T08:32:46.098Z</time></trkpt><trkpt lat="45.7862899" lon="13.6260877"><ele>175.0</ele><time>2026-04-06T08:32:50.096Z</time></trkpt><trkpt lat="45.7862436" lon="13.6260203"><ele>175.0</ele><time>2026-04-06T08:32:54.097Z</time></trkpt><trkpt lat="45.7862183" lon="13.6259375"><ele>175.0</ele><time>2026-04-06T08:32:57.096Z</time></trkpt><trkpt lat="45.7861845" lon="13.6258481"><ele>175.0</ele><time>2026-04-06T08:33:00.097Z</time></trkpt><trkpt lat="45.7861434" lon="13.6257756"><ele>175.0</ele><time>2026-04-06T08:33:03.1Z</time></trkpt><trkpt lat="45.7860909" lon="13.6256761"><ele>175.0</ele><time>2026-04-06T08:33:07.096Z</time></trkpt><trkpt lat="45.7860242" lon="13.6255968"><ele>175.0</ele><time>2026-04-06T08:33:10.098Z</time></trkpt><trkpt lat="45.7859494" lon="13.6255078"><ele>175.0</ele><time>2026-04-06T08:33:13.096Z</time></trkpt><trkpt lat="45.7858936" lon="13.6254462"><ele>175.0</ele><time>2026-04-06T08:33:15.097Z</time></trkpt><trkpt lat="45.7858449" lon="13.6253883"><ele>175.0</ele><time>2026-04-06T08:33:17.102Z</time></trkpt><trkpt lat="45.7857886" lon="13.6252858"><ele>175.0</ele><time>2026-04-06T08:33:20.102Z</time></trkpt><trkpt lat="45.7857501" lon="13.6252108"><ele>175.0</ele><time>2026-04-06T08:33:22.098Z</time></trkpt><trkpt lat="45.785712" lon="13.6251006"><ele>175.0</ele><time>2026-04-06T08:33:25.103Z</time></trkpt><trkpt lat="45.7856772" lon="13.6250067"><ele>175.28571428571428</ele><time>2026-04-06T08:33:27.094Z</time></trkpt><trkpt lat="45.7856322" lon="13.624912"><ele>175.57142857142856</ele><time>2026-04-06T08:33:29.097Z</time></trkpt><trkpt lat="45.7855849" lon="13.6248261"><ele>175.85714285714286</ele><time>2026-04-06T08:33:31.097Z</time></trkpt><trkpt lat="45.7855371" lon="13.6247373"><ele>176.14285714285714</ele><time>2026-04-06T08:33:33.095Z</time></trkpt><trkpt lat="45.7854943" lon="13.6246553"><ele>176.42857142857142</ele><time>2026-04-06T08:33:35.097Z</time></trkpt><trkpt lat="45.785455" lon="13.6245754"><ele>176.71428571428572</ele><time>2026-04-06T08:33:37.095Z</time></trkpt><trkpt lat="45.7854216" lon="13.624495"><ele>177.0</ele><time>2026-04-06T08:33:39.096Z</time></trkpt><trkpt lat="45.7853897" lon="13.6244081"><ele>177.0</ele><time>2026-04-06T08:33:41.093Z</time></trkpt><trkpt lat="45.7853543" lon="13.6243285"><ele>177.0</ele><time>2026-04-06T08:33:43.092Z</time></trkpt><trkpt lat="45.7853102" lon="13.6242595"><ele>177.0</ele><time>2026-04-06T08:33:45.092Z</time></trkpt><trkpt lat="45.7852504" lon="13.6241827"><ele>177.0</ele><time>2026-04-06T08:33:48.098Z</time></trkpt><trkpt lat="45.785206" lon="13.6240917"><ele>177.0</ele><time>2026-04-06T08:33:52.095Z</time></trkpt><trkpt lat="45.7851898" lon="13.6239863"><ele>177.0</ele><time>2026-04-06T08:33:56.1Z</time></trkpt><trkpt lat="45.7851721" lon="13.6238881"><ele>177.0</ele><time>2026-04-06T08:33:59.097Z</time></trkpt><trkpt lat="45.7851635" lon="13.6237926"><ele>177.0</ele><time>2026-04-06T08:34:02.097Z</time></trkpt><trkpt lat="45.7851468" lon="13.6236983"><ele>177.0</ele><time>2026-04-06T08:34:05.091Z</time></trkpt><trkpt lat="45.7851354" lon="13.6236017"><ele>177.0</ele><time>2026-04-06T08:34:08.097Z</time></trkpt><trkpt lat="45.785111" lon="13.6235034"><ele>177.0</ele><time>2026-04-06T08:34:11.119Z</time></trkpt><trkpt lat="45.7850443" lon="13.6234349"><ele>177.0</ele><time>2026-04-06T08:34:14.114Z</time></trkpt><trkpt lat="45.7849552" lon="13.6234194"><ele>177.0</ele><time>2026-04-06T08:34:17.091Z</time></trkpt><trkpt lat="45.7848661" lon="13.6234188"><ele>177.33333333333334</ele><time>2026-04-06T08:34:20.098Z</time></trkpt><trkpt lat="45.7847782" lon="13.6233979"><ele>177.66666666666666</ele><time>2026-04-06T08:34:23.093Z</time></trkpt><trkpt lat="45.7846937" lon="13.6233787"><ele>178.0</ele><time>2026-04-06T08:34:26.093Z</time></trkpt><trkpt lat="45.7847683" lon="13.6233982"><ele>178.33333333333331</ele><time>2026-04-06T08:35:30.085Z</time></trkpt><trkpt lat="45.7848501" lon="13.6234211"><ele>178.66666666666666</ele><time>2026-04-06T08:35:34.108Z</time></trkpt><trkpt lat="45.7849138" lon="13.6234299"><ele>179.0</ele><time>2026-04-06T08:35:37.084Z</time></trkpt><trkpt lat="45.7849927" lon="13.6234352"><ele>179.00000000000003</ele><time>2026-04-06T08:35:41.11Z</time></trkpt><trkpt lat="45.785062" lon="13.623452"><ele>179.0</ele><time>2026-04-06T08:35:45.09Z</time></trkpt><trkpt lat="45.7851202" lon="13.6235026"><ele>179.0</ele><time>2026-04-06T08:35:57.108Z</time></trkpt><trkpt lat="45.7851528" lon="13.6235882"><ele>179.0</ele><time>2026-04-06T08:36:03.086Z</time></trkpt><trkpt lat="45.7851668" lon="13.6236889"><ele>179.0</ele><time>2026-04-06T08:36:08.087Z</time></trkpt><trkpt lat="45.7851571" lon="13.6237789"><ele>179.00000000000003</ele><time>2026-04-06T08:36:27.082Z</time></trkpt><trkpt lat="45.7851468" lon="13.623687"><ele>179.0</ele><time>2026-04-06T08:36:36.086Z</time></trkpt><trkpt lat="45.7851393" lon="13.6235911"><ele>179.0</ele><time>2026-04-06T08:36:40.085Z</time></trkpt><trkpt lat="45.785106" lon="13.6235089"><ele>179.0</ele><time>2026-04-06T08:36:44.111Z</time></trkpt><trkpt lat="45.7850445" lon="13.6234364"><ele>179.0</ele><time>2026-04-06T08:36:57.088Z</time></trkpt><trkpt lat="45.7849748" lon="13.6234205"><ele>179.0</ele><time>2026-04-06T08:37:00.084Z</time></trkpt><trkpt lat="45.7848938" lon="13.6234183"><ele>179.0</ele><time>2026-04-06T08:37:03.083Z</time></trkpt><trkpt lat="45.7848148" lon="13.6233967"><ele>179.0</ele><time>2026-04-06T08:37:06.108Z</time></trkpt><trkpt lat="45.784731" lon="13.623378"><ele>179.00000000000003</ele><time>2026-04-06T08:37:09.083Z</time></trkpt><trkpt lat="45.7846434" lon="13.6233599"><ele>179.0</ele><time>2026-04-06T08:37:12.087Z</time></trkpt><trkpt lat="45.784577" lon="13.623353"><ele>179.0</ele><time>2026-04-06T08:37:14.083Z</time></trkpt><trkpt lat="45.7845078" lon="13.6233385"><ele>179.0</ele><time>2026-04-06T08:37:16.086Z</time></trkpt><trkpt lat="45.7844383" lon="13.6233259"><ele>179.0</ele><time>2026-04-06T08:37:18.084Z</time></trkpt><trkpt lat="45.7843736" lon="13.6233014"><ele>179.00000000000003</ele><time>2026-04-06T08:37:20.085Z</time></trkpt><trkpt lat="45.7843124" lon="13.6232552"><ele>179.0</ele><time>2026-04-06T08:37:22.083Z</time></trkpt><trkpt lat="45.7842487" lon="13.6232016"><ele>178.83333333333331</ele><time>2026-04-06T08:37:24.085Z</time></trkpt><trkpt lat="45.7841907" lon="13.6231328"><ele>178.66666666666666</ele><time>2026-04-06T08:37:26.084Z</time></trkpt><trkpt lat="45.7841359" lon="13.6230665"><ele>178.5</ele><time>2026-04-06T08:37:28.084Z</time></trkpt><trkpt lat="45.7840549" lon="13.6229862"><ele>178.33333333333334</ele><time>2026-04-06T08:37:31.085Z</time></trkpt><trkpt lat="45.7839918" lon="13.6228843"><ele>178.16666666666669</ele><time>2026-04-06T08:37:34.107Z</time></trkpt><trkpt lat="45.7839596" lon="13.6227937"><ele>178.0</ele><time>2026-04-06T08:37:36.085Z</time></trkpt><trkpt lat="45.7839326" lon="13.6226982"><ele>177.85714285714283</ele><time>2026-04-06T08:37:38.087Z</time></trkpt><trkpt lat="45.7838882" lon="13.6226266"><ele>177.71428571428572</ele><time>2026-04-06T08:37:40.084Z</time></trkpt><trkpt lat="45.7838356" lon="13.6225746"><ele>177.57142857142856</ele><time>2026-04-06T08:37:42.086Z</time></trkpt><trkpt lat="45.7837799" lon="13.6225281"><ele>177.42857142857142</ele><time>2026-04-06T08:37:44.109Z</time></trkpt><trkpt lat="45.7837044" lon="13.6224536"><ele>177.28571428571428</ele><time>2026-04-06T08:37:47.084Z</time></trkpt><trkpt lat="45.7836604" lon="13.6223805"><ele>177.14285714285714</ele><time>2026-04-06T08:37:49.086Z</time></trkpt><trkpt lat="45.7836283" lon="13.6222831"><ele>177.0</ele><time>2026-04-06T08:37:51.086Z</time></trkpt><trkpt lat="45.78361" lon="13.6221711"><ele>177.0</ele><time>2026-04-06T08:37:53.083Z</time></trkpt><trkpt lat="45.7835843" lon="13.6220642"><ele>177.0</ele><time>2026-04-06T08:37:55.089Z</time></trkpt><trkpt lat="45.7835518" lon="13.6219538"><ele>177.0</ele><time>2026-04-06T08:37:57.085Z</time></trkpt><trkpt lat="45.7835194" lon="13.6218528"><ele>177.0</ele><time>2026-04-06T08:37:59.108Z</time></trkpt><trkpt lat="45.7834906" lon="13.6217699"><ele>177.0</ele><time>2026-04-06T08:38:01.084Z</time></trkpt><trkpt lat="45.7834591" lon="13.6216799"><ele>177.0</ele><time>2026-04-06T08:38:03.084Z</time></trkpt><trkpt lat="45.7834287" lon="13.6215869"><ele>177.0</ele><time>2026-04-06T08:38:05.084Z</time></trkpt><trkpt lat="45.7834033" lon="13.6214933"><ele>176.2857142857143</ele><time>2026-04-06T08:38:07.108Z</time></trkpt><trkpt lat="45.7833802" lon="13.6214011"><ele>175.57142857142856</ele><time>2026-04-06T08:38:09.083Z</time></trkpt><trkpt lat="45.7833622" lon="13.6213145"><ele>174.85714285714286</ele><time>2026-04-06T08:38:11.085Z</time></trkpt><trkpt lat="45.7833291" lon="13.6211945"><ele>174.14285714285717</ele><time>2026-04-06T08:38:14.085Z</time></trkpt><trkpt lat="45.7833003" lon="13.6211076"><ele>173.42857142857144</ele><time>2026-04-06T08:38:16.083Z</time></trkpt><trkpt lat="45.7832629" lon="13.6210166"><ele>172.71428571428572</ele><time>2026-04-06T08:38:18.085Z</time></trkpt><trkpt lat="45.7832155" lon="13.6209297"><ele>172.0</ele><time>2026-04-06T08:38:20.115Z</time></trkpt><trkpt lat="45.7831672" lon="13.6208518"><ele>171.83333333333334</ele><time>2026-04-06T08:38:22.084Z</time></trkpt><trkpt lat="45.7831121" lon="13.6207643"><ele>171.66666666666669</ele><time>2026-04-06T08:38:25.086Z</time></trkpt><trkpt lat="45.7830637" lon="13.6206886"><ele>171.5</ele><time>2026-04-06T08:38:28.084Z</time></trkpt><trkpt lat="45.7830105" lon="13.6206126"><ele>171.33333333333334</ele><time>2026-04-06T08:38:31.084Z</time></trkpt><trkpt lat="45.7829536" lon="13.6205351"><ele>171.16666666666666</ele><time>2026-04-06T08:38:35.085Z</time></trkpt><trkpt lat="45.7829012" lon="13.6204613"><ele>171.0</ele><time>2026-04-06T08:38:39.086Z</time></trkpt><trkpt lat="45.7828545" lon="13.6203873"><ele>171.16666666666666</ele><time>2026-04-06T08:38:42.086Z</time></trkpt><trkpt lat="45.7828224" lon="13.6202964"><ele>171.33333333333334</ele><time>2026-04-06T08:38:45.087Z</time></trkpt><trkpt lat="45.7827791" lon="13.6201891"><ele>171.5</ele><time>2026-04-06T08:38:48.109Z</time></trkpt><trkpt lat="45.7827305" lon="13.620071"><ele>171.66666666666669</ele><time>2026-04-06T08:38:51.087Z</time></trkpt><trkpt lat="45.782697" lon="13.6199819"><ele>171.83333333333334</ele><time>2026-04-06T08:38:53.111Z</time></trkpt><trkpt lat="45.7826502" lon="13.6198985"><ele>172.0</ele><time>2026-04-06T08:38:55.086Z</time></trkpt><trkpt lat="45.7826103" lon="13.6198119"><ele>170.57142857142858</ele><time>2026-04-06T08:38:57.087Z</time></trkpt><trkpt lat="45.782579" lon="13.6197293"><ele>169.14285714285714</ele><time>2026-04-06T08:38:59.11Z</time></trkpt><trkpt lat="45.782542" lon="13.6196253"><ele>167.71428571428572</ele><time>2026-04-06T08:39:03.09Z</time></trkpt><trkpt lat="45.7824999" lon="13.6195556"><ele>166.28571428571428</ele><time>2026-04-06T08:39:05.085Z</time></trkpt><trkpt lat="45.7824355" lon="13.6195368"><ele>164.85714285714286</ele><time>2026-04-06T08:39:09.085Z</time></trkpt><trkpt lat="45.7823663" lon="13.6195895"><ele>163.42857142857144</ele><time>2026-04-06T08:40:42.086Z</time></trkpt><trkpt lat="45.782332" lon="13.6196894"><ele>162.0</ele><time>2026-04-06T08:40:45.085Z</time></trkpt><trkpt lat="45.7823021" lon="13.6197764"><ele>162.0</ele><time>2026-04-06T08:40:47.111Z</time></trkpt><trkpt lat="45.7822722" lon="13.6198826"><ele>162.0</ele><time>2026-04-06T08:40:49.086Z</time></trkpt><trkpt lat="45.7822545" lon="13.6199772"><ele>162.0</ele><time>2026-04-06T08:40:52.086Z</time></trkpt><trkpt lat="45.7822181" lon="13.6200842"><ele>162.0</ele><time>2026-04-06T08:40:56.11Z</time></trkpt><trkpt lat="45.7821589" lon="13.6201539"><ele>162.0</ele><time>2026-04-06T08:40:59.093Z</time></trkpt><trkpt lat="45.782093" lon="13.620156"><ele>162.0</ele><time>2026-04-06T08:41:02.112Z</time></trkpt><trkpt lat="45.78202" lon="13.6200931"><ele>162.0</ele><time>2026-04-06T08:41:05.085Z</time></trkpt><trkpt lat="45.7819619" lon="13.6200069"><ele>162.0</ele><time>2026-04-06T08:41:08.088Z</time></trkpt><trkpt lat="45.7819105" lon="13.6199146"><ele>162.0</ele><time>2026-04-06T08:41:11.085Z</time></trkpt><trkpt lat="45.7818435" lon="13.6198333"><ele>162.0</ele><time>2026-04-06T08:41:14.085Z</time></trkpt><trkpt lat="45.7817777" lon="13.6197784"><ele>162.0</ele><time>2026-04-06T08:41:17.13Z</time></trkpt><trkpt lat="45.7816988" lon="13.6197764"><ele>162.0</ele><time>2026-04-06T08:41:21.095Z</time></trkpt><trkpt lat="45.7816352" lon="13.619785"><ele>160.42857142857144</ele><time>2026-04-06T08:41:24.125Z</time></trkpt><trkpt lat="45.7815625" lon="13.6198188"><ele>158.85714285714286</ele><time>2026-04-06T08:41:27.096Z</time></trkpt><trkpt lat="45.7814936" lon="13.6198324"><ele>157.28571428571428</ele><time>2026-04-06T08:41:29.098Z</time></trkpt><trkpt lat="45.7814052" lon="13.6198017"><ele>155.71428571428572</ele><time>2026-04-06T08:41:32.092Z</time></trkpt><trkpt lat="45.7813444" lon="13.6197522"><ele>154.14285714285714</ele><time>2026-04-06T08:41:35.095Z</time></trkpt><trkpt lat="45.7812794" lon="13.6196879"><ele>152.57142857142858</ele><time>2026-04-06T08:41:39.095Z</time></trkpt><trkpt lat="45.7812271" lon="13.6196376"><ele>151.0</ele><time>2026-04-06T08:41:42.12Z</time></trkpt><trkpt lat="45.7811628" lon="13.6196037"><ele>151.0</ele><time>2026-04-06T08:41:45.095Z</time></trkpt><trkpt lat="45.7810966" lon="13.6196226"><ele>151.0</ele><time>2026-04-06T08:41:48.124Z</time></trkpt><trkpt lat="45.7810225" lon="13.6196625"><ele>151.0</ele><time>2026-04-06T08:41:50.102Z</time></trkpt><trkpt lat="45.7809387" lon="13.6196908"><ele>151.0</ele><time>2026-04-06T08:41:52.124Z</time></trkpt><trkpt lat="45.7808643" lon="13.6197003"><ele>151.0</ele><time>2026-04-06T08:41:54.095Z</time></trkpt><trkpt lat="45.7807836" lon="13.6196781"><ele>151.0</ele><time>2026-04-06T08:41:57.1Z</time></trkpt><trkpt lat="45.7807139" lon="13.6196451"><ele>149.0</ele><time>2026-04-06T08:42:00.12Z</time></trkpt><trkpt lat="45.7806352" lon="13.6196495"><ele>147.0</ele><time>2026-04-06T08:42:02.1Z</time></trkpt><trkpt lat="45.7805766" lon="13.6196933"><ele>145.0</ele><time>2026-04-06T08:42:04.116Z</time></trkpt><trkpt lat="45.7805258" lon="13.6197595"><ele>143.0</ele><time>2026-04-06T08:42:06.121Z</time></trkpt><trkpt lat="45.7804741" lon="13.619836"><ele>141.0</ele><time>2026-04-06T08:42:08.096Z</time></trkpt><trkpt lat="45.7804165" lon="13.6199165"><ele>139.0</ele><time>2026-04-06T08:42:10.125Z</time></trkpt><trkpt lat="45.7803506" lon="13.619994"><ele>139.0</ele><time>2026-04-06T08:42:12.1Z</time></trkpt><trkpt lat="45.7802797" lon="13.6200742"><ele>139.0</ele><time>2026-04-06T08:42:14.096Z</time></trkpt><trkpt lat="45.7802048" lon="13.6201472"><ele>139.0</ele><time>2026-04-06T08:42:16.097Z</time></trkpt><trkpt lat="45.780147" lon="13.6201998"><ele>139.0</ele><time>2026-04-06T08:42:18.123Z</time></trkpt><trkpt lat="45.7800903" lon="13.62025"><ele>139.0</ele><time>2026-04-06T08:42:20.097Z</time></trkpt><trkpt lat="45.7800183" lon="13.620297"><ele>139.0</ele><time>2026-04-06T08:42:23.093Z</time></trkpt><trkpt lat="45.7799532" lon="13.6203359"><ele>137.0</ele><time>2026-04-06T08:42:26.092Z</time></trkpt><trkpt lat="45.7798767" lon="13.620392"><ele>135.0</ele><time>2026-04-06T08:42:30.125Z</time></trkpt><trkpt lat="45.7798224" lon="13.6204478"><ele>133.0</ele><time>2026-04-06T08:42:32.1Z</time></trkpt><trkpt lat="45.7797561" lon="13.62051"><ele>131.0</ele><time>2026-04-06T08:42:34.095Z</time></trkpt><trkpt lat="45.7796832" lon="13.6205639"><ele>129.0</ele><time>2026-04-06T08:42:37.095Z</time></trkpt><trkpt lat="45.7796182" lon="13.6205972"><ele>127.0</ele><time>2026-04-06T08:42:41.094Z</time></trkpt><trkpt lat="45.7795283" lon="13.6206099"><ele>127.0</ele><time>2026-04-06T08:42:44.123Z</time></trkpt><trkpt lat="45.7794522" lon="13.6205794"><ele>127.0</ele><time>2026-04-06T08:42:48.096Z</time></trkpt><trkpt lat="45.7794022" lon="13.6205209"><ele>127.0</ele><time>2026-04-06T08:42:51.095Z</time></trkpt><trkpt lat="45.7793262" lon="13.6205178"><ele>127.0</ele><time>2026-04-06T08:42:54.092Z</time></trkpt><trkpt lat="45.779265" lon="13.6205664"><ele>127.0</ele><time>2026-04-06T08:42:56.121Z</time></trkpt><trkpt lat="45.7792161" lon="13.6206402"><ele>127.0</ele><time>2026-04-06T08:42:58.096Z</time></trkpt><trkpt lat="45.7791689" lon="13.620725"><ele>127.0</ele><time>2026-04-06T08:43:00.098Z</time></trkpt><trkpt lat="45.7791288" lon="13.620803"><ele>125.00000000000001</ele><time>2026-04-06T08:43:02.1Z</time></trkpt><trkpt lat="45.7790789" lon="13.6208777"><ele>123.0</ele><time>2026-04-06T08:43:29.09Z</time></trkpt><trkpt lat="45.779042" lon="13.6209607"><ele>121.0</ele><time>2026-04-06T08:43:32.097Z</time></trkpt><trkpt lat="45.7789956" lon="13.6210656"><ele>119.0</ele><time>2026-04-06T08:43:35.095Z</time></trkpt><trkpt lat="45.7789301" lon="13.6211308"><ele>117.00000000000001</ele><time>2026-04-06T08:43:38.091Z</time></trkpt><trkpt lat="45.7788567" lon="13.6211689"><ele>115.0</ele><time>2026-04-06T08:43:41.12Z</time></trkpt><trkpt lat="45.7787819" lon="13.6212175"><ele>115.00000000000001</ele><time>2026-04-06T08:43:44.095Z</time></trkpt><trkpt lat="45.7787229" lon="13.6212724"><ele>115.0</ele><time>2026-04-06T08:43:47.093Z</time></trkpt><trkpt lat="45.7786529" lon="13.6213283"><ele>115.0</ele><time>2026-04-06T08:43:50.099Z</time></trkpt><trkpt lat="45.7785717" lon="13.6213296"><ele>115.0</ele><time>2026-04-06T08:43:53.091Z</time></trkpt><trkpt lat="45.7785081" lon="13.6212341"><ele>115.00000000000001</ele><time>2026-04-06T08:43:56.09Z</time></trkpt><trkpt lat="45.778481" lon="13.6211399"><ele>115.0</ele><time>2026-04-06T08:43:58.122Z</time></trkpt><trkpt lat="45.7784613" lon="13.6210272"><ele>111.66666666666667</ele><time>2026-04-06T08:44:00.091Z</time></trkpt><trkpt lat="45.7784408" lon="13.6209012"><ele>108.33333333333334</ele><time>2026-04-06T08:44:02.094Z</time></trkpt><trkpt lat="45.7784299" lon="13.6207719"><ele>105.0</ele><time>2026-04-06T08:44:04.121Z</time></trkpt><trkpt lat="45.7784318" lon="13.6206441"><ele>101.66666666666667</ele><time>2026-04-06T08:44:06.099Z</time></trkpt><trkpt lat="45.7784359" lon="13.6205171"><ele>98.33333333333334</ele><time>2026-04-06T08:44:08.095Z</time></trkpt><trkpt lat="45.7784354" lon="13.6203902"><ele>95.0</ele><time>2026-04-06T08:44:10.098Z</time></trkpt><trkpt lat="45.7784189" lon="13.6202567"><ele>95.0</ele><time>2026-04-06T08:44:12.096Z</time></trkpt><trkpt lat="45.7784101" lon="13.6201289"><ele>95.0</ele><time>2026-04-06T08:44:14.096Z</time></trkpt><trkpt lat="45.7783966" lon="13.6200072"><ele>95.0</ele><time>2026-04-06T08:44:16.094Z</time></trkpt><trkpt lat="45.7783826" lon="13.6198804"><ele>95.0</ele><time>2026-04-06T08:44:18.089Z</time></trkpt><trkpt lat="45.7783651" lon="13.6197716"><ele>95.0</ele><time>2026-04-06T08:44:20.097Z</time></trkpt><trkpt lat="45.7783407" lon="13.6196717"><ele>95.0</ele><time>2026-04-06T08:44:22.091Z</time></trkpt><trkpt lat="45.7783122" lon="13.619576"><ele>94.5</ele><time>2026-04-06T08:44:24.089Z</time></trkpt><trkpt lat="45.7782938" lon="13.619478"><ele>94.0</ele><time>2026-04-06T08:44:26.093Z</time></trkpt><trkpt lat="45.7782726" lon="13.6193497"><ele>93.5</ele><time>2026-04-06T08:44:29.095Z</time></trkpt><trkpt lat="45.7782604" lon="13.619255"><ele>93.0</ele><time>2026-04-06T08:44:31.093Z</time></trkpt><trkpt lat="45.7782258" lon="13.6191734"><ele>92.5</ele><time>2026-04-06T08:44:33.091Z</time></trkpt><trkpt lat="45.7781516" lon="13.6191347"><ele>92.0</ele><time>2026-04-06T08:44:35.09Z</time></trkpt><trkpt lat="45.7780669" lon="13.6191389"><ele>92.0</ele><time>2026-04-06T08:44:37.09Z</time></trkpt><trkpt lat="45.7779819" lon="13.6191176"><ele>92.0</ele><time>2026-04-06T08:44:40.094Z</time></trkpt><trkpt lat="45.7779569" lon="13.6190319"><ele>92.0</ele><time>2026-04-06T08:44:42.121Z</time></trkpt><trkpt lat="45.7779565" lon="13.6189317"><ele>92.0</ele><time>2026-04-06T08:44:44.095Z</time></trkpt><trkpt lat="45.7779651" lon="13.6188241"><ele>92.0</ele><time>2026-04-06T08:44:46.1Z</time></trkpt><trkpt lat="45.7779713" lon="13.6187027"><ele>92.0</ele><time>2026-04-06T08:44:48.093Z</time></trkpt><trkpt lat="45.7779751" lon="13.6185832"><ele>91.6</ele><time>2026-04-06T08:44:50.099Z</time></trkpt><trkpt lat="45.7779819" lon="13.6184574"><ele>91.19999999999999</ele><time>2026-04-06T08:44:52.115Z</time></trkpt><trkpt lat="45.7779807" lon="13.6183279"><ele>90.8</ele><time>2026-04-06T08:44:54.098Z</time></trkpt><trkpt lat="45.7779857" lon="13.6181943"><ele>90.4</ele><time>2026-04-06T08:44:56.089Z</time></trkpt><trkpt lat="45.7779941" lon="13.6180633"><ele>90.0</ele><time>2026-04-06T08:44:58.091Z</time></trkpt><trkpt lat="45.7780062" lon="13.6179384"><ele>89.8</ele><time>2026-04-06T08:45:00.094Z</time></trkpt><trkpt lat="45.7780126" lon="13.617801"><ele>89.6</ele><time>2026-04-06T08:45:02.087Z</time></trkpt><trkpt lat="45.7780216" lon="13.6176583"><ele>89.4</ele><time>2026-04-06T08:45:04.096Z</time></trkpt><trkpt lat="45.7780296" lon="13.6175198"><ele>89.2</ele><time>2026-04-06T08:45:06.118Z</time></trkpt><trkpt lat="45.7780383" lon="13.6173705"><ele>89.0</ele><time>2026-04-06T08:45:08.09Z</time></trkpt><trkpt lat="45.7780495" lon="13.6172241"><ele>89.0</ele><time>2026-04-06T08:45:10.088Z</time></trkpt><trkpt lat="45.77806" lon="13.6170715"><ele>89.0</ele><time>2026-04-06T08:45:12.126Z</time></trkpt><trkpt lat="45.7780683" lon="13.6169141"><ele>89.0</ele><time>2026-04-06T08:45:14.119Z</time></trkpt><trkpt lat="45.7780637" lon="13.6167669"><ele>89.0</ele><time>2026-04-06T08:45:16.091Z</time></trkpt><trkpt lat="45.7780622" lon="13.6166288"><ele>89.0</ele><time>2026-04-06T08:45:18.119Z</time></trkpt><trkpt lat="45.7780582" lon="13.6164992"><ele>88.83333333333334</ele><time>2026-04-06T08:45:20.123Z</time></trkpt><trkpt lat="45.7780498" lon="13.6163773"><ele>88.66666666666667</ele><time>2026-04-06T08:45:22.094Z</time></trkpt><trkpt lat="45.7780364" lon="13.6162726"><ele>88.5</ele><time>2026-04-06T08:45:24.094Z</time></trkpt><trkpt lat="45.7780054" lon="13.6161769"><ele>88.33333333333333</ele><time>2026-04-06T08:45:27.102Z</time></trkpt><trkpt lat="45.7779703" lon="13.6161008"><ele>88.16666666666666</ele><time>2026-04-06T08:45:30.123Z</time></trkpt><trkpt lat="45.7779334" lon="13.6159705"><ele>88.0</ele><time>2026-04-06T08:45:33.098Z</time></trkpt><trkpt lat="45.7778967" lon="13.6158563"><ele>88.16666666666666</ele><time>2026-04-06T08:45:35.094Z</time></trkpt><trkpt lat="45.7778497" lon="13.6157221"><ele>88.33333333333333</ele><time>2026-04-06T08:45:37.1Z</time></trkpt><trkpt lat="45.7778058" lon="13.6155639"><ele>88.5</ele><time>2026-04-06T08:45:39.125Z</time></trkpt><trkpt lat="45.7777835" lon="13.6154748"><ele>88.66666666666667</ele><time>2026-04-06T08:45:40.084Z</time></trkpt><trkpt lat="45.7777581" lon="13.6153879"><ele>88.83333333333334</ele><time>2026-04-06T08:45:41.095Z</time></trkpt><trkpt lat="45.7777353" lon="13.6152987"><ele>89.0</ele><time>2026-04-06T08:45:42.096Z</time></trkpt><trkpt lat="45.7777049" lon="13.6152014"><ele>86.5</ele><time>2026-04-06T08:45:43.12Z</time></trkpt><trkpt lat="45.7776718" lon="13.615101"><ele>84.0</ele><time>2026-04-06T08:45:44.099Z</time></trkpt><trkpt lat="45.7776413" lon="13.6149998"><ele>81.5</ele><time>2026-04-06T08:45:45.101Z</time></trkpt><trkpt lat="45.7776075" lon="13.6148953"><ele>79.0</ele><time>2026-04-06T08:45:46.097Z</time></trkpt><trkpt lat="45.7775713" lon="13.6147905"><ele>76.5</ele><time>2026-04-06T08:45:47.092Z</time></trkpt><trkpt lat="45.77753" lon="13.6146827"><ele>74.0</ele><time>2026-04-06T08:45:48.085Z</time></trkpt><trkpt lat="45.7774857" lon="13.614578"><ele>73.8</ele><time>2026-04-06T08:45:49.084Z</time></trkpt><trkpt lat="45.7774355" lon="13.6144719"><ele>73.60000000000001</ele><time>2026-04-06T08:45:50.111Z</time></trkpt><trkpt lat="45.7773834" lon="13.6143621"><ele>73.4</ele><time>2026-04-06T08:45:51.085Z</time></trkpt><trkpt lat="45.7773308" lon="13.6142591"><ele>73.2</ele><time>2026-04-06T08:45:52.095Z</time></trkpt><trkpt lat="45.7772803" lon="13.6141473"><ele>73.0</ele><time>2026-04-06T08:45:53.084Z</time></trkpt><trkpt lat="45.7772274" lon="13.6140405"><ele>73.0</ele><time>2026-04-06T08:45:54.108Z</time></trkpt><trkpt lat="45.777172" lon="13.6139333"><ele>73.0</ele><time>2026-04-06T08:45:55.11Z</time></trkpt><trkpt lat="45.7771206" lon="13.6138256"><ele>73.0</ele><time>2026-04-06T08:45:56.112Z</time></trkpt><trkpt lat="45.7770671" lon="13.6137154"><ele>73.0</ele><time>2026-04-06T08:45:57.085Z</time></trkpt><trkpt lat="45.7770129" lon="13.6136085"><ele>73.0</ele><time>2026-04-06T08:45:58.086Z</time></trkpt><trkpt lat="45.7769559" lon="13.6135024"><ele>73.6</ele><time>2026-04-06T08:45:59.086Z</time></trkpt><trkpt lat="45.7769007" lon="13.6133964"><ele>74.19999999999999</ele><time>2026-04-06T08:46:00.087Z</time></trkpt><trkpt lat="45.7768503" lon="13.6132851"><ele>74.8</ele><time>2026-04-06T08:46:01.086Z</time></trkpt><trkpt lat="45.7767965" lon="13.6131806"><ele>75.39999999999999</ele><time>2026-04-06T08:46:02.108Z</time></trkpt><trkpt lat="45.7767387" lon="13.613072"><ele>76.0</ele><time>2026-04-06T08:46:03.085Z</time></trkpt><trkpt lat="45.7766809" lon="13.6129669"><ele>74.0</ele><time>2026-04-06T08:46:04.083Z</time></trkpt><trkpt lat="45.7766253" lon="13.6128546"><ele>72.0</ele><time>2026-04-06T08:46:05.085Z</time></trkpt><trkpt lat="45.7765671" lon="13.6127416"><ele>70.0</ele><time>2026-04-06T08:46:06.107Z</time></trkpt><trkpt lat="45.7765084" lon="13.6126252"><ele>68.0</ele><time>2026-04-06T08:46:07.084Z</time></trkpt><trkpt lat="45.7764523" lon="13.612499"><ele>66.0</ele><time>2026-04-06T08:46:08.084Z</time></trkpt><trkpt lat="45.7763951" lon="13.6123717"><ele>65.6</ele><time>2026-04-06T08:46:09.109Z</time></trkpt><trkpt lat="45.7763317" lon="13.6122338"><ele>65.19999999999999</ele><time>2026-04-06T08:46:10.113Z</time></trkpt><trkpt lat="45.7762676" lon="13.6121037"><ele>64.80000000000001</ele><time>2026-04-06T08:46:11.096Z</time></trkpt><trkpt lat="45.776206" lon="13.6119775"><ele>64.4</ele><time>2026-04-06T08:46:12.109Z</time></trkpt><trkpt lat="45.7761468" lon="13.6118573"><ele>64.0</ele><time>2026-04-06T08:46:13.11Z</time></trkpt><trkpt lat="45.7760805" lon="13.6117213"><ele>62.2</ele><time>2026-04-06T08:46:14.084Z</time></trkpt><trkpt lat="45.7760034" lon="13.6116036"><ele>60.400000000000006</ele><time>2026-04-06T08:46:15.084Z</time></trkpt><trkpt lat="45.7759319" lon="13.611484"><ele>58.6</ele><time>2026-04-06T08:46:16.083Z</time></trkpt><trkpt lat="45.775858" lon="13.6113735"><ele>56.8</ele><time>2026-04-06T08:46:17.084Z</time></trkpt><trkpt lat="45.7757829" lon="13.6112747"><ele>55.0</ele><time>2026-04-06T08:46:18.083Z</time></trkpt><trkpt lat="45.7757094" lon="13.6111765"><ele>55.0</ele><time>2026-04-06T08:46:19.084Z</time></trkpt><trkpt lat="45.7756376" lon="13.6110754"><ele>55.0</ele><time>2026-04-06T08:46:20.109Z</time></trkpt><trkpt lat="45.7755642" lon="13.6109832"><ele>55.0</ele><time>2026-04-06T08:46:21.084Z</time></trkpt><trkpt lat="45.775497" lon="13.6108896"><ele>55.0</ele><time>2026-04-06T08:46:22.085Z</time></trkpt><trkpt lat="45.7754299" lon="13.6108005"><ele>55.0</ele><time>2026-04-06T08:46:23.085Z</time></trkpt><trkpt lat="45.7753638" lon="13.6107184"><ele>54.99999999999999</ele><time>2026-04-06T08:46:24.107Z</time></trkpt><trkpt lat="45.7753059" lon="13.6106346"><ele>55.0</ele><time>2026-04-06T08:46:25.108Z</time></trkpt><trkpt lat="45.775245" lon="13.6105574"><ele>55.0</ele><time>2026-04-06T08:46:26.082Z</time></trkpt><trkpt lat="45.7751873" lon="13.6104755"><ele>55.0</ele><time>2026-04-06T08:46:27.085Z</time></trkpt><trkpt lat="45.7751364" lon="13.6104007"><ele>54.99999999999999</ele><time>2026-04-06T08:46:28.083Z</time></trkpt><trkpt lat="45.7750833" lon="13.6103249"><ele>55.0</ele><time>2026-04-06T08:46:29.084Z</time></trkpt><trkpt lat="45.7750318" lon="13.6102507"><ele>54.49999999999999</ele><time>2026-04-06T08:46:30.086Z</time></trkpt><trkpt lat="45.7749828" lon="13.6101773"><ele>54.0</ele><time>2026-04-06T08:46:31.086Z</time></trkpt><trkpt lat="45.7749389" lon="13.610109"><ele>53.5</ele><time>2026-04-06T08:46:32.108Z</time></trkpt><trkpt lat="45.7748953" lon="13.6100359"><ele>53.0</ele><time>2026-04-06T08:46:33.109Z</time></trkpt><trkpt lat="45.7748186" lon="13.6099013"><ele>52.49999999999999</ele><time>2026-04-06T08:46:35.085Z</time></trkpt><trkpt lat="45.7747469" lon="13.6097834"><ele>52.0</ele><time>2026-04-06T08:46:37.111Z</time></trkpt><trkpt lat="45.7746791" lon="13.6096766"><ele>52.0</ele><time>2026-04-06T08:46:39.084Z</time></trkpt><trkpt lat="45.7746239" lon="13.6095685"><ele>52.0</ele><time>2026-04-06T08:46:41.079Z</time></trkpt><trkpt lat="45.7745768" lon="13.6094771"><ele>50.0</ele><time>2026-04-06T08:46:43.085Z</time></trkpt><trkpt lat="45.774553" lon="13.609369"><ele>50.0</ele><time>2026-04-06T08:46:45.11Z</time></trkpt><trkpt lat="45.7745506" lon="13.6092564"><ele>50.0</ele><time>2026-04-06T08:46:47.083Z</time></trkpt><trkpt lat="45.7745553" lon="13.6091542"><ele>50.0</ele><time>2026-04-06T08:46:49.084Z</time></trkpt></trkseg></trk></gpx>